<?xml version="1.0" encoding="UTF-8" standalone="no" ?>
<gpx xmlns="http://www.topografix.com/GPX/1/1" xmlns:xsi="http://www.w3.org/2001/XMLSchema-instance" xsi:schemaLocation="http://www.topografix.com/GPX/1/1 http://www.topografix.com/GPX/1/1/gpx.xsd" version="1.1" creator="VisuGPX - https://www.visugpx.com">
  <metadata>
    <name>Ariège J5</name>
    <desc><![CDATA[description à venir]]></desc>
  </metadata>
  <trk>
    <name><![CDATA[Ariège J5]]></name>
    <trkseg>
      <trkpt lat="42.70496" lon="1.53153">
        <ele>1894</ele>
        <time>2014-08-15T06:42:43Z</time>
      </trkpt>
      <trkpt lat="42.70497" lon="1.53153">
        <ele>1898</ele>
        <time>2014-08-15T06:42:50Z</time>
      </trkpt>
      <trkpt lat="42.70497" lon="1.53152">
        <ele>1902</ele>
        <time>2014-08-15T06:42:54Z</time>
      </trkpt>
      <trkpt lat="42.70497" lon="1.53152">
        <ele>1905</ele>
        <time>2014-08-15T06:42:59Z</time>
      </trkpt>
      <trkpt lat="42.70497" lon="1.53151">
        <ele>1908</ele>
        <time>2014-08-15T06:43:02Z</time>
      </trkpt>
      <trkpt lat="42.70496" lon="1.53151">
        <ele>1911</ele>
        <time>2014-08-15T06:43:07Z</time>
      </trkpt>
      <trkpt lat="42.70495" lon="1.5315">
        <ele>1914</ele>
        <time>2014-08-15T06:43:13Z</time>
      </trkpt>
      <trkpt lat="42.70495" lon="1.53146">
        <ele>1917</ele>
        <time>2014-08-15T06:43:24Z</time>
      </trkpt>
      <trkpt lat="42.70496" lon="1.53151">
        <ele>1919</ele>
        <time>2014-08-15T06:43:44Z</time>
      </trkpt>
      <trkpt lat="42.70497" lon="1.53154">
        <ele>1922</ele>
        <time>2014-08-15T06:44:06Z</time>
      </trkpt>
      <trkpt lat="42.70497" lon="1.53152">
        <ele>1925</ele>
        <time>2014-08-15T06:44:22Z</time>
      </trkpt>
      <trkpt lat="42.70502" lon="1.53154">
        <ele>1927</ele>
        <time>2014-08-15T06:44:35Z</time>
      </trkpt>
      <trkpt lat="42.705" lon="1.53153">
        <ele>1930</ele>
        <time>2014-08-15T06:44:56Z</time>
      </trkpt>
      <trkpt lat="42.70501" lon="1.53153">
        <ele>1930</ele>
        <time>2014-08-15T06:45:09Z</time>
      </trkpt>
      <trkpt lat="42.70502" lon="1.53149">
        <ele>1930</ele>
        <time>2014-08-15T06:45:24Z</time>
      </trkpt>
      <trkpt lat="42.70505" lon="1.5315">
        <ele>1930</ele>
        <time>2014-08-15T06:45:35Z</time>
      </trkpt>
      <trkpt lat="42.70505" lon="1.53153">
        <ele>1930</ele>
        <time>2014-08-15T06:45:52Z</time>
      </trkpt>
      <trkpt lat="42.70514" lon="1.53159">
        <ele>1933</ele>
        <time>2014-08-15T06:46:08Z</time>
      </trkpt>
      <trkpt lat="42.7052" lon="1.53166">
        <ele>1933</ele>
        <time>2014-08-15T06:46:21Z</time>
      </trkpt>
      <trkpt lat="42.70522" lon="1.53168">
        <ele>1933</ele>
        <time>2014-08-15T06:46:23Z</time>
      </trkpt>
      <trkpt lat="42.70524" lon="1.53171">
        <ele>1934</ele>
        <time>2014-08-15T06:46:26Z</time>
      </trkpt>
      <trkpt lat="42.70536" lon="1.53181">
        <ele>1934</ele>
        <time>2014-08-15T06:46:41Z</time>
      </trkpt>
      <trkpt lat="42.7054" lon="1.5319">
        <ele>1935</ele>
        <time>2014-08-15T06:46:53Z</time>
      </trkpt>
      <trkpt lat="42.70547" lon="1.5319">
        <ele>1935</ele>
        <time>2014-08-15T06:47:04Z</time>
      </trkpt>
      <trkpt lat="42.70552" lon="1.5319">
        <ele>1934</ele>
        <time>2014-08-15T06:47:17Z</time>
      </trkpt>
      <trkpt lat="42.70553" lon="1.53193">
        <ele>1935</ele>
        <time>2014-08-15T06:47:21Z</time>
      </trkpt>
      <trkpt lat="42.70558" lon="1.53201">
        <ele>1934</ele>
        <time>2014-08-15T06:47:32Z</time>
      </trkpt>
      <trkpt lat="42.70558" lon="1.53202">
        <ele>1934</ele>
        <time>2014-08-15T06:47:33Z</time>
      </trkpt>
      <trkpt lat="42.70558" lon="1.53213">
        <ele>1933</ele>
        <time>2014-08-15T06:47:49Z</time>
      </trkpt>
      <trkpt lat="42.70564" lon="1.53217">
        <ele>1931</ele>
        <time>2014-08-15T06:48:02Z</time>
      </trkpt>
      <trkpt lat="42.70571" lon="1.53222">
        <ele>1929</ele>
        <time>2014-08-15T06:48:14Z</time>
      </trkpt>
      <trkpt lat="42.70574" lon="1.53223">
        <ele>1929</ele>
        <time>2014-08-15T06:48:18Z</time>
      </trkpt>
      <trkpt lat="42.70578" lon="1.53226">
        <ele>1929</ele>
        <time>2014-08-15T06:48:34Z</time>
      </trkpt>
      <trkpt lat="42.70576" lon="1.53225">
        <ele>1929</ele>
        <time>2014-08-15T06:48:47Z</time>
      </trkpt>
      <trkpt lat="42.70574" lon="1.53224">
        <ele>1929</ele>
        <time>2014-08-15T06:48:51Z</time>
      </trkpt>
      <trkpt lat="42.70569" lon="1.53232">
        <ele>1929</ele>
        <time>2014-08-15T06:49:04Z</time>
      </trkpt>
      <trkpt lat="42.7057" lon="1.53236">
        <ele>1930</ele>
        <time>2014-08-15T06:49:11Z</time>
      </trkpt>
      <trkpt lat="42.70574" lon="1.53241">
        <ele>1930</ele>
        <time>2014-08-15T06:49:26Z</time>
      </trkpt>
      <trkpt lat="42.70575" lon="1.53245">
        <ele>1929</ele>
        <time>2014-08-15T06:49:36Z</time>
      </trkpt>
      <trkpt lat="42.70579" lon="1.53246">
        <ele>1930</ele>
        <time>2014-08-15T06:49:48Z</time>
      </trkpt>
      <trkpt lat="42.70579" lon="1.53247">
        <ele>1930</ele>
        <time>2014-08-15T06:50:03Z</time>
      </trkpt>
      <trkpt lat="42.70585" lon="1.53248">
        <ele>1930</ele>
        <time>2014-08-15T06:50:15Z</time>
      </trkpt>
      <trkpt lat="42.70586" lon="1.53249">
        <ele>1930</ele>
        <time>2014-08-15T06:50:16Z</time>
      </trkpt>
      <trkpt lat="42.70595" lon="1.53258">
        <ele>1929</ele>
        <time>2014-08-15T06:50:29Z</time>
      </trkpt>
      <trkpt lat="42.70602" lon="1.53267">
        <ele>1930</ele>
        <time>2014-08-15T06:50:44Z</time>
      </trkpt>
      <trkpt lat="42.70607" lon="1.53274">
        <ele>1931</ele>
        <time>2014-08-15T06:50:59Z</time>
      </trkpt>
      <trkpt lat="42.70611" lon="1.5328">
        <ele>1930</ele>
        <time>2014-08-15T06:51:11Z</time>
      </trkpt>
      <trkpt lat="42.70619" lon="1.53287">
        <ele>1930</ele>
        <time>2014-08-15T06:51:25Z</time>
      </trkpt>
      <trkpt lat="42.7062" lon="1.5329">
        <ele>1929</ele>
        <time>2014-08-15T06:51:38Z</time>
      </trkpt>
      <trkpt lat="42.70621" lon="1.53291">
        <ele>1930</ele>
        <time>2014-08-15T06:51:55Z</time>
      </trkpt>
      <trkpt lat="42.70621" lon="1.53303">
        <ele>1930</ele>
        <time>2014-08-15T06:52:10Z</time>
      </trkpt>
      <trkpt lat="42.70623" lon="1.5331">
        <ele>1930</ele>
        <time>2014-08-15T06:52:23Z</time>
      </trkpt>
      <trkpt lat="42.70625" lon="1.53327">
        <ele>1929</ele>
        <time>2014-08-15T06:52:39Z</time>
      </trkpt>
      <trkpt lat="42.70626" lon="1.5333">
        <ele>1929</ele>
        <time>2014-08-15T06:52:54Z</time>
      </trkpt>
      <trkpt lat="42.70627" lon="1.53331">
        <ele>1929</ele>
        <time>2014-08-15T06:53:24Z</time>
      </trkpt>
      <trkpt lat="42.70626" lon="1.5334">
        <ele>1930</ele>
        <time>2014-08-15T06:53:44Z</time>
      </trkpt>
      <trkpt lat="42.70629" lon="1.53348">
        <ele>1932</ele>
        <time>2014-08-15T06:53:59Z</time>
      </trkpt>
      <trkpt lat="42.70636" lon="1.5336">
        <ele>1935</ele>
        <time>2014-08-15T06:54:16Z</time>
      </trkpt>
      <trkpt lat="42.70638" lon="1.53374">
        <ele>1937</ele>
        <time>2014-08-15T06:54:31Z</time>
      </trkpt>
      <trkpt lat="42.70644" lon="1.5338">
        <ele>1938</ele>
        <time>2014-08-15T06:54:47Z</time>
      </trkpt>
      <trkpt lat="42.70647" lon="1.53391">
        <ele>1940</ele>
        <time>2014-08-15T06:55:00Z</time>
      </trkpt>
      <trkpt lat="42.70651" lon="1.53402">
        <ele>1942</ele>
        <time>2014-08-15T06:55:15Z</time>
      </trkpt>
      <trkpt lat="42.70656" lon="1.53409">
        <ele>1944</ele>
        <time>2014-08-15T06:55:30Z</time>
      </trkpt>
      <trkpt lat="42.7066" lon="1.53414">
        <ele>1946</ele>
        <time>2014-08-15T06:55:43Z</time>
      </trkpt>
      <trkpt lat="42.70661" lon="1.53416">
        <ele>1946</ele>
        <time>2014-08-15T06:55:57Z</time>
      </trkpt>
      <trkpt lat="42.70662" lon="1.53415">
        <ele>1946</ele>
        <time>2014-08-15T06:56:13Z</time>
      </trkpt>
      <trkpt lat="42.70663" lon="1.53414">
        <ele>1946</ele>
        <time>2014-08-15T06:56:36Z</time>
      </trkpt>
      <trkpt lat="42.70667" lon="1.53418">
        <ele>1949</ele>
        <time>2014-08-15T06:56:49Z</time>
      </trkpt>
      <trkpt lat="42.7067" lon="1.53422">
        <ele>1950</ele>
        <time>2014-08-15T06:57:03Z</time>
      </trkpt>
      <trkpt lat="42.70675" lon="1.53419">
        <ele>1952</ele>
        <time>2014-08-15T06:57:15Z</time>
      </trkpt>
      <trkpt lat="42.70678" lon="1.53419">
        <ele>1953</ele>
        <time>2014-08-15T06:57:29Z</time>
      </trkpt>
      <trkpt lat="42.7068" lon="1.53427">
        <ele>1954</ele>
        <time>2014-08-15T06:57:52Z</time>
      </trkpt>
      <trkpt lat="42.70687" lon="1.53431">
        <ele>1956</ele>
        <time>2014-08-15T06:58:05Z</time>
      </trkpt>
      <trkpt lat="42.70692" lon="1.53434">
        <ele>1957</ele>
        <time>2014-08-15T06:58:18Z</time>
      </trkpt>
      <trkpt lat="42.70697" lon="1.53439">
        <ele>1959</ele>
        <time>2014-08-15T06:58:32Z</time>
      </trkpt>
      <trkpt lat="42.70702" lon="1.53442">
        <ele>1962</ele>
        <time>2014-08-15T06:58:47Z</time>
      </trkpt>
      <trkpt lat="42.70708" lon="1.53448">
        <ele>1964</ele>
        <time>2014-08-15T06:58:59Z</time>
      </trkpt>
      <trkpt lat="42.70713" lon="1.53454">
        <ele>1965</ele>
        <time>2014-08-15T06:59:12Z</time>
      </trkpt>
      <trkpt lat="42.70716" lon="1.53458">
        <ele>1966</ele>
        <time>2014-08-15T06:59:24Z</time>
      </trkpt>
      <trkpt lat="42.70721" lon="1.53462">
        <ele>1970</ele>
        <time>2014-08-15T06:59:40Z</time>
      </trkpt>
      <trkpt lat="42.70728" lon="1.53466">
        <ele>1972</ele>
        <time>2014-08-15T06:59:57Z</time>
      </trkpt>
      <trkpt lat="42.70731" lon="1.53468">
        <ele>1973</ele>
        <time>2014-08-15T07:00:11Z</time>
      </trkpt>
      <trkpt lat="42.70739" lon="1.53478">
        <ele>1974</ele>
        <time>2014-08-15T07:00:26Z</time>
      </trkpt>
      <trkpt lat="42.70747" lon="1.53485">
        <ele>1976</ele>
        <time>2014-08-15T07:00:41Z</time>
      </trkpt>
      <trkpt lat="42.70757" lon="1.53494">
        <ele>1979</ele>
        <time>2014-08-15T07:00:57Z</time>
      </trkpt>
      <trkpt lat="42.70765" lon="1.535">
        <ele>1981</ele>
        <time>2014-08-15T07:01:12Z</time>
      </trkpt>
      <trkpt lat="42.70773" lon="1.53508">
        <ele>1983</ele>
        <time>2014-08-15T07:01:27Z</time>
      </trkpt>
      <trkpt lat="42.70775" lon="1.5351">
        <ele>1983</ele>
        <time>2014-08-15T07:01:30Z</time>
      </trkpt>
      <trkpt lat="42.7078" lon="1.53518">
        <ele>1982</ele>
        <time>2014-08-15T07:01:46Z</time>
      </trkpt>
      <trkpt lat="42.70787" lon="1.53524">
        <ele>1983</ele>
        <time>2014-08-15T07:02:01Z</time>
      </trkpt>
      <trkpt lat="42.70796" lon="1.53536">
        <ele>1984</ele>
        <time>2014-08-15T07:02:16Z</time>
      </trkpt>
      <trkpt lat="42.70801" lon="1.53547">
        <ele>1984</ele>
        <time>2014-08-15T07:02:31Z</time>
      </trkpt>
      <trkpt lat="42.70808" lon="1.53552">
        <ele>1987</ele>
        <time>2014-08-15T07:02:46Z</time>
      </trkpt>
      <trkpt lat="42.70815" lon="1.53556">
        <ele>1989</ele>
        <time>2014-08-15T07:03:00Z</time>
      </trkpt>
      <trkpt lat="42.70823" lon="1.53564">
        <ele>1991</ele>
        <time>2014-08-15T07:03:16Z</time>
      </trkpt>
      <trkpt lat="42.70829" lon="1.53567">
        <ele>1992</ele>
        <time>2014-08-15T07:03:30Z</time>
      </trkpt>
      <trkpt lat="42.70836" lon="1.53572">
        <ele>1994</ele>
        <time>2014-08-15T07:03:45Z</time>
      </trkpt>
      <trkpt lat="42.70836" lon="1.5357">
        <ele>1994</ele>
        <time>2014-08-15T07:04:04Z</time>
      </trkpt>
      <trkpt lat="42.7084" lon="1.5358">
        <ele>1994</ele>
        <time>2014-08-15T07:04:19Z</time>
      </trkpt>
      <trkpt lat="42.70841" lon="1.53578">
        <ele>1995</ele>
        <time>2014-08-15T07:04:40Z</time>
      </trkpt>
      <trkpt lat="42.70841" lon="1.53575">
        <ele>1995</ele>
        <time>2014-08-15T07:05:03Z</time>
      </trkpt>
      <trkpt lat="42.70843" lon="1.53582">
        <ele>1994</ele>
        <time>2014-08-15T07:05:22Z</time>
      </trkpt>
      <trkpt lat="42.70846" lon="1.5359">
        <ele>1994</ele>
        <time>2014-08-15T07:05:29Z</time>
      </trkpt>
      <trkpt lat="42.70852" lon="1.53612">
        <ele>1994</ele>
        <time>2014-08-15T07:05:46Z</time>
      </trkpt>
      <trkpt lat="42.70856" lon="1.53623">
        <ele>1993</ele>
        <time>2014-08-15T07:06:00Z</time>
      </trkpt>
      <trkpt lat="42.70857" lon="1.53626">
        <ele>1992</ele>
        <time>2014-08-15T07:06:06Z</time>
      </trkpt>
      <trkpt lat="42.70868" lon="1.53629">
        <ele>1992</ele>
        <time>2014-08-15T07:06:19Z</time>
      </trkpt>
      <trkpt lat="42.70879" lon="1.53632">
        <ele>1994</ele>
        <time>2014-08-15T07:06:34Z</time>
      </trkpt>
      <trkpt lat="42.7089" lon="1.5364">
        <ele>1995</ele>
        <time>2014-08-15T07:06:47Z</time>
      </trkpt>
      <trkpt lat="42.70892" lon="1.5364">
        <ele>1996</ele>
        <time>2014-08-15T07:07:02Z</time>
      </trkpt>
      <trkpt lat="42.70893" lon="1.5364">
        <ele>1995</ele>
        <time>2014-08-15T07:07:21Z</time>
      </trkpt>
      <trkpt lat="42.70891" lon="1.53642">
        <ele>1996</ele>
        <time>2014-08-15T07:07:38Z</time>
      </trkpt>
      <trkpt lat="42.70892" lon="1.53641">
        <ele>1996</ele>
        <time>2014-08-15T07:07:40Z</time>
      </trkpt>
      <trkpt lat="42.70889" lon="1.53643">
        <ele>1996</ele>
        <time>2014-08-15T07:07:52Z</time>
      </trkpt>
      <trkpt lat="42.70892" lon="1.5364">
        <ele>1996</ele>
        <time>2014-08-15T07:08:08Z</time>
      </trkpt>
      <trkpt lat="42.70892" lon="1.53652">
        <ele>1995</ele>
        <time>2014-08-15T07:08:24Z</time>
      </trkpt>
      <trkpt lat="42.70892" lon="1.53653">
        <ele>1994</ele>
        <time>2014-08-15T07:08:43Z</time>
      </trkpt>
      <trkpt lat="42.70897" lon="1.53661">
        <ele>1993</ele>
        <time>2014-08-15T07:08:55Z</time>
      </trkpt>
      <trkpt lat="42.70902" lon="1.53668">
        <ele>1995</ele>
        <time>2014-08-15T07:09:10Z</time>
      </trkpt>
      <trkpt lat="42.70907" lon="1.53674">
        <ele>1995</ele>
        <time>2014-08-15T07:09:28Z</time>
      </trkpt>
      <trkpt lat="42.70908" lon="1.53677">
        <ele>1995</ele>
        <time>2014-08-15T07:09:42Z</time>
      </trkpt>
      <trkpt lat="42.70912" lon="1.53687">
        <ele>1994</ele>
        <time>2014-08-15T07:09:55Z</time>
      </trkpt>
      <trkpt lat="42.70913" lon="1.53689">
        <ele>1994</ele>
        <time>2014-08-15T07:09:56Z</time>
      </trkpt>
      <trkpt lat="42.70916" lon="1.53707">
        <ele>1991</ele>
        <time>2014-08-15T07:10:14Z</time>
      </trkpt>
      <trkpt lat="42.70917" lon="1.53716">
        <ele>1991</ele>
        <time>2014-08-15T07:10:26Z</time>
      </trkpt>
      <trkpt lat="42.70919" lon="1.53727">
        <ele>1993</ele>
        <time>2014-08-15T07:10:40Z</time>
      </trkpt>
      <trkpt lat="42.70921" lon="1.53734">
        <ele>1996</ele>
        <time>2014-08-15T07:10:57Z</time>
      </trkpt>
      <trkpt lat="42.7092" lon="1.53744">
        <ele>1998</ele>
        <time>2014-08-15T07:11:12Z</time>
      </trkpt>
      <trkpt lat="42.70917" lon="1.53747">
        <ele>1998</ele>
        <time>2014-08-15T07:11:27Z</time>
      </trkpt>
      <trkpt lat="42.70919" lon="1.53745">
        <ele>1997</ele>
        <time>2014-08-15T07:11:52Z</time>
      </trkpt>
      <trkpt lat="42.70917" lon="1.53746">
        <ele>1998</ele>
        <time>2014-08-15T07:12:16Z</time>
      </trkpt>
      <trkpt lat="42.7092" lon="1.53747">
        <ele>1997</ele>
        <time>2014-08-15T07:12:43Z</time>
      </trkpt>
      <trkpt lat="42.70918" lon="1.53744">
        <ele>1998</ele>
        <time>2014-08-15T07:13:09Z</time>
      </trkpt>
      <trkpt lat="42.70921" lon="1.53743">
        <ele>1997</ele>
        <time>2014-08-15T07:13:34Z</time>
      </trkpt>
      <trkpt lat="42.70918" lon="1.53748">
        <ele>1997</ele>
        <time>2014-08-15T07:13:49Z</time>
      </trkpt>
      <trkpt lat="42.70919" lon="1.53747">
        <ele>1997</ele>
        <time>2014-08-15T07:14:12Z</time>
      </trkpt>
      <trkpt lat="42.70918" lon="1.53756">
        <ele>1995</ele>
        <time>2014-08-15T07:14:31Z</time>
      </trkpt>
      <trkpt lat="42.70916" lon="1.53768">
        <ele>1993</ele>
        <time>2014-08-15T07:14:46Z</time>
      </trkpt>
      <trkpt lat="42.70917" lon="1.53777">
        <ele>1991</ele>
        <time>2014-08-15T07:15:00Z</time>
      </trkpt>
      <trkpt lat="42.70916" lon="1.53785">
        <ele>1989</ele>
        <time>2014-08-15T07:15:12Z</time>
      </trkpt>
      <trkpt lat="42.70907" lon="1.53784">
        <ele>1986</ele>
        <time>2014-08-15T07:15:29Z</time>
      </trkpt>
      <trkpt lat="42.70901" lon="1.53782">
        <ele>1985</ele>
        <time>2014-08-15T07:15:40Z</time>
      </trkpt>
      <trkpt lat="42.70897" lon="1.53796">
        <ele>1981</ele>
        <time>2014-08-15T07:15:54Z</time>
      </trkpt>
      <trkpt lat="42.70893" lon="1.53798">
        <ele>1978</ele>
        <time>2014-08-15T07:16:03Z</time>
      </trkpt>
      <trkpt lat="42.70893" lon="1.53809">
        <ele>1977</ele>
        <time>2014-08-15T07:16:16Z</time>
      </trkpt>
      <trkpt lat="42.70897" lon="1.53819">
        <ele>1973</ele>
        <time>2014-08-15T07:16:29Z</time>
      </trkpt>
      <trkpt lat="42.70899" lon="1.53827">
        <ele>1971</ele>
        <time>2014-08-15T07:16:45Z</time>
      </trkpt>
      <trkpt lat="42.70897" lon="1.53826">
        <ele>1971</ele>
        <time>2014-08-15T07:17:11Z</time>
      </trkpt>
      <trkpt lat="42.70898" lon="1.53836">
        <ele>1969</ele>
        <time>2014-08-15T07:17:31Z</time>
      </trkpt>
      <trkpt lat="42.709" lon="1.53845">
        <ele>1966</ele>
        <time>2014-08-15T07:17:43Z</time>
      </trkpt>
      <trkpt lat="42.70902" lon="1.53857">
        <ele>1964</ele>
        <time>2014-08-15T07:17:58Z</time>
      </trkpt>
      <trkpt lat="42.70903" lon="1.53866">
        <ele>1960</ele>
        <time>2014-08-15T07:18:11Z</time>
      </trkpt>
      <trkpt lat="42.70901" lon="1.53868">
        <ele>1959</ele>
        <time>2014-08-15T07:18:27Z</time>
      </trkpt>
      <trkpt lat="42.70899" lon="1.53877">
        <ele>1956</ele>
        <time>2014-08-15T07:18:40Z</time>
      </trkpt>
      <trkpt lat="42.70898" lon="1.53888">
        <ele>1953</ele>
        <time>2014-08-15T07:18:54Z</time>
      </trkpt>
      <trkpt lat="42.70893" lon="1.539">
        <ele>1950</ele>
        <time>2014-08-15T07:19:09Z</time>
      </trkpt>
      <trkpt lat="42.70891" lon="1.53908">
        <ele>1949</ele>
        <time>2014-08-15T07:19:16Z</time>
      </trkpt>
      <trkpt lat="42.70889" lon="1.53918">
        <ele>1947</ele>
        <time>2014-08-15T07:19:29Z</time>
      </trkpt>
      <trkpt lat="42.70887" lon="1.5393">
        <ele>1945</ele>
        <time>2014-08-15T07:19:42Z</time>
      </trkpt>
      <trkpt lat="42.70888" lon="1.53934">
        <ele>1944</ele>
        <time>2014-08-15T07:19:57Z</time>
      </trkpt>
      <trkpt lat="42.70883" lon="1.53939">
        <ele>1942</ele>
        <time>2014-08-15T07:20:11Z</time>
      </trkpt>
      <trkpt lat="42.70875" lon="1.53942">
        <ele>1939</ele>
        <time>2014-08-15T07:20:25Z</time>
      </trkpt>
      <trkpt lat="42.70872" lon="1.53941">
        <ele>1938</ele>
        <time>2014-08-15T07:20:43Z</time>
      </trkpt>
      <trkpt lat="42.70867" lon="1.53945">
        <ele>1937</ele>
        <time>2014-08-15T07:20:51Z</time>
      </trkpt>
      <trkpt lat="42.70865" lon="1.53945">
        <ele>1936</ele>
        <time>2014-08-15T07:20:54Z</time>
      </trkpt>
      <trkpt lat="42.70853" lon="1.53943">
        <ele>1934</ele>
        <time>2014-08-15T07:21:10Z</time>
      </trkpt>
      <trkpt lat="42.70848" lon="1.5394">
        <ele>1933</ele>
        <time>2014-08-15T07:21:22Z</time>
      </trkpt>
      <trkpt lat="42.70843" lon="1.53941">
        <ele>1932</ele>
        <time>2014-08-15T07:21:31Z</time>
      </trkpt>
      <trkpt lat="42.70843" lon="1.53945">
        <ele>1931</ele>
        <time>2014-08-15T07:21:35Z</time>
      </trkpt>
      <trkpt lat="42.70838" lon="1.53955">
        <ele>1929</ele>
        <time>2014-08-15T07:21:49Z</time>
      </trkpt>
      <trkpt lat="42.70836" lon="1.53962">
        <ele>1927</ele>
        <time>2014-08-15T07:21:56Z</time>
      </trkpt>
      <trkpt lat="42.70835" lon="1.53973">
        <ele>1924</ele>
        <time>2014-08-15T07:22:09Z</time>
      </trkpt>
      <trkpt lat="42.70833" lon="1.53974">
        <ele>1924</ele>
        <time>2014-08-15T07:22:25Z</time>
      </trkpt>
      <trkpt lat="42.7083" lon="1.53982">
        <ele>1922</ele>
        <time>2014-08-15T07:22:37Z</time>
      </trkpt>
      <trkpt lat="42.70827" lon="1.5399">
        <ele>1920</ele>
        <time>2014-08-15T07:22:51Z</time>
      </trkpt>
      <trkpt lat="42.70824" lon="1.53996">
        <ele>1917</ele>
        <time>2014-08-15T07:23:05Z</time>
      </trkpt>
      <trkpt lat="42.70815" lon="1.53989">
        <ele>1916</ele>
        <time>2014-08-15T07:23:19Z</time>
      </trkpt>
      <trkpt lat="42.70813" lon="1.53984">
        <ele>1914</ele>
        <time>2014-08-15T07:23:29Z</time>
      </trkpt>
      <trkpt lat="42.70803" lon="1.53977">
        <ele>1912</ele>
        <time>2014-08-15T07:23:42Z</time>
      </trkpt>
      <trkpt lat="42.708" lon="1.53979">
        <ele>1909</ele>
        <time>2014-08-15T07:23:54Z</time>
      </trkpt>
      <trkpt lat="42.70804" lon="1.53993">
        <ele>1907</ele>
        <time>2014-08-15T07:24:08Z</time>
      </trkpt>
      <trkpt lat="42.70803" lon="1.53997">
        <ele>1905</ele>
        <time>2014-08-15T07:24:14Z</time>
      </trkpt>
      <trkpt lat="42.708" lon="1.54003">
        <ele>1903</ele>
        <time>2014-08-15T07:24:28Z</time>
      </trkpt>
      <trkpt lat="42.70792" lon="1.53994">
        <ele>1901</ele>
        <time>2014-08-15T07:24:43Z</time>
      </trkpt>
      <trkpt lat="42.70783" lon="1.53986">
        <ele>1898</ele>
        <time>2014-08-15T07:24:58Z</time>
      </trkpt>
      <trkpt lat="42.70778" lon="1.53978">
        <ele>1894</ele>
        <time>2014-08-15T07:25:13Z</time>
      </trkpt>
      <trkpt lat="42.70778" lon="1.53991">
        <ele>1892</ele>
        <time>2014-08-15T07:25:26Z</time>
      </trkpt>
      <trkpt lat="42.70777" lon="1.53999">
        <ele>1891</ele>
        <time>2014-08-15T07:25:39Z</time>
      </trkpt>
      <trkpt lat="42.70777" lon="1.54004">
        <ele>1890</ele>
        <time>2014-08-15T07:25:59Z</time>
      </trkpt>
      <trkpt lat="42.70777" lon="1.54005">
        <ele>1890</ele>
        <time>2014-08-15T07:26:00Z</time>
      </trkpt>
      <trkpt lat="42.70772" lon="1.54005">
        <ele>1888</ele>
        <time>2014-08-15T07:26:10Z</time>
      </trkpt>
      <trkpt lat="42.70767" lon="1.54006">
        <ele>1885</ele>
        <time>2014-08-15T07:26:26Z</time>
      </trkpt>
      <trkpt lat="42.70767" lon="1.54017">
        <ele>1882</ele>
        <time>2014-08-15T07:26:40Z</time>
      </trkpt>
      <trkpt lat="42.70768" lon="1.54024">
        <ele>1880</ele>
        <time>2014-08-15T07:26:50Z</time>
      </trkpt>
      <trkpt lat="42.70766" lon="1.54032">
        <ele>1878</ele>
        <time>2014-08-15T07:27:04Z</time>
      </trkpt>
      <trkpt lat="42.70763" lon="1.54041">
        <ele>1876</ele>
        <time>2014-08-15T07:27:18Z</time>
      </trkpt>
      <trkpt lat="42.70761" lon="1.54051">
        <ele>1873</ele>
        <time>2014-08-15T07:27:31Z</time>
      </trkpt>
      <trkpt lat="42.70759" lon="1.54062">
        <ele>1871</ele>
        <time>2014-08-15T07:27:44Z</time>
      </trkpt>
      <trkpt lat="42.7076" lon="1.54072">
        <ele>1870</ele>
        <time>2014-08-15T07:27:54Z</time>
      </trkpt>
      <trkpt lat="42.70761" lon="1.54074">
        <ele>1869</ele>
        <time>2014-08-15T07:27:56Z</time>
      </trkpt>
      <trkpt lat="42.70763" lon="1.54085">
        <ele>1869</ele>
        <time>2014-08-15T07:28:08Z</time>
      </trkpt>
      <trkpt lat="42.70763" lon="1.54098">
        <ele>1866</ele>
        <time>2014-08-15T07:28:23Z</time>
      </trkpt>
      <trkpt lat="42.70763" lon="1.54103">
        <ele>1865</ele>
        <time>2014-08-15T07:28:31Z</time>
      </trkpt>
      <trkpt lat="42.70761" lon="1.54112">
        <ele>1863</ele>
        <time>2014-08-15T07:28:46Z</time>
      </trkpt>
      <trkpt lat="42.70761" lon="1.54115">
        <ele>1862</ele>
        <time>2014-08-15T07:29:01Z</time>
      </trkpt>
      <trkpt lat="42.70762" lon="1.54122">
        <ele>1861</ele>
        <time>2014-08-15T07:29:20Z</time>
      </trkpt>
      <trkpt lat="42.70766" lon="1.54126">
        <ele>1860</ele>
        <time>2014-08-15T07:29:27Z</time>
      </trkpt>
      <trkpt lat="42.70776" lon="1.54135">
        <ele>1858</ele>
        <time>2014-08-15T07:29:42Z</time>
      </trkpt>
      <trkpt lat="42.70777" lon="1.54138">
        <ele>1857</ele>
        <time>2014-08-15T07:29:47Z</time>
      </trkpt>
      <trkpt lat="42.70778" lon="1.54148">
        <ele>1855</ele>
        <time>2014-08-15T07:30:00Z</time>
      </trkpt>
      <trkpt lat="42.70775" lon="1.54156">
        <ele>1853</ele>
        <time>2014-08-15T07:30:13Z</time>
      </trkpt>
      <trkpt lat="42.70773" lon="1.54163">
        <ele>1851</ele>
        <time>2014-08-15T07:30:25Z</time>
      </trkpt>
      <trkpt lat="42.70773" lon="1.54163">
        <ele>1850</ele>
        <time>2014-08-15T07:30:26Z</time>
      </trkpt>
      <trkpt lat="42.7077" lon="1.54173">
        <ele>1848</ele>
        <time>2014-08-15T07:30:41Z</time>
      </trkpt>
      <trkpt lat="42.70767" lon="1.54177">
        <ele>1847</ele>
        <time>2014-08-15T07:30:52Z</time>
      </trkpt>
      <trkpt lat="42.70768" lon="1.54188">
        <ele>1844</ele>
        <time>2014-08-15T07:31:06Z</time>
      </trkpt>
      <trkpt lat="42.7076" lon="1.54191">
        <ele>1843</ele>
        <time>2014-08-15T07:31:19Z</time>
      </trkpt>
      <trkpt lat="42.7076" lon="1.5419">
        <ele>1843</ele>
        <time>2014-08-15T07:31:27Z</time>
      </trkpt>
      <trkpt lat="42.70754" lon="1.54204">
        <ele>1842</ele>
        <time>2014-08-15T07:31:42Z</time>
      </trkpt>
      <trkpt lat="42.70754" lon="1.54219">
        <ele>1842</ele>
        <time>2014-08-15T07:31:53Z</time>
      </trkpt>
      <trkpt lat="42.70749" lon="1.54225">
        <ele>1841</ele>
        <time>2014-08-15T07:32:04Z</time>
      </trkpt>
      <trkpt lat="42.70748" lon="1.5422">
        <ele>1841</ele>
        <time>2014-08-15T07:32:15Z</time>
      </trkpt>
      <trkpt lat="42.7075" lon="1.54221">
        <ele>1841</ele>
        <time>2014-08-15T07:32:35Z</time>
      </trkpt>
      <trkpt lat="42.70749" lon="1.54224">
        <ele>1840</ele>
        <time>2014-08-15T07:32:46Z</time>
      </trkpt>
      <trkpt lat="42.70746" lon="1.54221">
        <ele>1840</ele>
        <time>2014-08-15T07:33:10Z</time>
      </trkpt>
      <trkpt lat="42.70751" lon="1.54221">
        <ele>1840</ele>
        <time>2014-08-15T07:33:37Z</time>
      </trkpt>
      <trkpt lat="42.70751" lon="1.54224">
        <ele>1840</ele>
        <time>2014-08-15T07:34:02Z</time>
      </trkpt>
      <trkpt lat="42.70755" lon="1.54221">
        <ele>1840</ele>
        <time>2014-08-15T07:34:28Z</time>
      </trkpt>
      <trkpt lat="42.70755" lon="1.54217">
        <ele>1841</ele>
        <time>2014-08-15T07:34:52Z</time>
      </trkpt>
      <trkpt lat="42.70755" lon="1.54218">
        <ele>1840</ele>
        <time>2014-08-15T07:35:18Z</time>
      </trkpt>
      <trkpt lat="42.70757" lon="1.5422">
        <ele>1840</ele>
        <time>2014-08-15T07:35:45Z</time>
      </trkpt>
      <trkpt lat="42.70761" lon="1.54221">
        <ele>1840</ele>
        <time>2014-08-15T07:36:15Z</time>
      </trkpt>
      <trkpt lat="42.70757" lon="1.54223">
        <ele>1840</ele>
        <time>2014-08-15T07:36:40Z</time>
      </trkpt>
      <trkpt lat="42.70751" lon="1.54219">
        <ele>1840</ele>
        <time>2014-08-15T07:37:07Z</time>
      </trkpt>
      <trkpt lat="42.70752" lon="1.54218">
        <ele>1840</ele>
        <time>2014-08-15T07:37:33Z</time>
      </trkpt>
      <trkpt lat="42.7075" lon="1.54216">
        <ele>1840</ele>
        <time>2014-08-15T07:38:03Z</time>
      </trkpt>
      <trkpt lat="42.70751" lon="1.54214">
        <ele>1839</ele>
        <time>2014-08-15T07:38:39Z</time>
      </trkpt>
      <trkpt lat="42.70754" lon="1.5421">
        <ele>1840</ele>
        <time>2014-08-15T07:39:06Z</time>
      </trkpt>
      <trkpt lat="42.70755" lon="1.54217">
        <ele>1840</ele>
        <time>2014-08-15T07:39:33Z</time>
      </trkpt>
      <trkpt lat="42.70755" lon="1.54211">
        <ele>1840</ele>
        <time>2014-08-15T07:40:07Z</time>
      </trkpt>
      <trkpt lat="42.70755" lon="1.54226">
        <ele>1840</ele>
        <time>2014-08-15T07:40:33Z</time>
      </trkpt>
      <trkpt lat="42.70755" lon="1.54222">
        <ele>1840</ele>
        <time>2014-08-15T07:41:00Z</time>
      </trkpt>
      <trkpt lat="42.70754" lon="1.54227">
        <ele>1840</ele>
        <time>2014-08-15T07:41:27Z</time>
      </trkpt>
      <trkpt lat="42.70753" lon="1.54226">
        <ele>1840</ele>
        <time>2014-08-15T07:41:47Z</time>
      </trkpt>
      <trkpt lat="42.70747" lon="1.54216">
        <ele>1840</ele>
        <time>2014-08-15T07:42:00Z</time>
      </trkpt>
      <trkpt lat="42.70742" lon="1.54213">
        <ele>1840</ele>
        <time>2014-08-15T07:42:16Z</time>
      </trkpt>
      <trkpt lat="42.70739" lon="1.542">
        <ele>1840</ele>
        <time>2014-08-15T07:42:30Z</time>
      </trkpt>
      <trkpt lat="42.70736" lon="1.5419">
        <ele>1841</ele>
        <time>2014-08-15T07:42:43Z</time>
      </trkpt>
      <trkpt lat="42.70727" lon="1.54182">
        <ele>1842</ele>
        <time>2014-08-15T07:42:55Z</time>
      </trkpt>
      <trkpt lat="42.70723" lon="1.54177">
        <ele>1843</ele>
        <time>2014-08-15T07:43:08Z</time>
      </trkpt>
      <trkpt lat="42.70718" lon="1.54173">
        <ele>1842</ele>
        <time>2014-08-15T07:43:14Z</time>
      </trkpt>
      <trkpt lat="42.70712" lon="1.54166">
        <ele>1842</ele>
        <time>2014-08-15T07:43:24Z</time>
      </trkpt>
      <trkpt lat="42.70711" lon="1.54169">
        <ele>1842</ele>
        <time>2014-08-15T07:43:39Z</time>
      </trkpt>
      <trkpt lat="42.70709" lon="1.5417">
        <ele>1842</ele>
        <time>2014-08-15T07:43:54Z</time>
      </trkpt>
      <trkpt lat="42.70712" lon="1.54166">
        <ele>1842</ele>
        <time>2014-08-15T07:44:20Z</time>
      </trkpt>
      <trkpt lat="42.7071" lon="1.54167">
        <ele>1842</ele>
        <time>2014-08-15T07:44:51Z</time>
      </trkpt>
      <trkpt lat="42.70713" lon="1.5417">
        <ele>1842</ele>
        <time>2014-08-15T07:45:06Z</time>
      </trkpt>
      <trkpt lat="42.70713" lon="1.54166">
        <ele>1842</ele>
        <time>2014-08-15T07:45:40Z</time>
      </trkpt>
      <trkpt lat="42.70713" lon="1.54167">
        <ele>1842</ele>
        <time>2014-08-15T07:46:05Z</time>
      </trkpt>
      <trkpt lat="42.70707" lon="1.54165">
        <ele>1842</ele>
        <time>2014-08-15T07:46:33Z</time>
      </trkpt>
      <trkpt lat="42.70709" lon="1.54157">
        <ele>1841</ele>
        <time>2014-08-15T07:47:03Z</time>
      </trkpt>
      <trkpt lat="42.70697" lon="1.54163">
        <ele>1842</ele>
        <time>2014-08-15T07:47:22Z</time>
      </trkpt>
      <trkpt lat="42.70688" lon="1.54166">
        <ele>1842</ele>
        <time>2014-08-15T07:47:31Z</time>
      </trkpt>
      <trkpt lat="42.70684" lon="1.54158">
        <ele>1842</ele>
        <time>2014-08-15T07:47:40Z</time>
      </trkpt>
      <trkpt lat="42.70671" lon="1.5415">
        <ele>1843</ele>
        <time>2014-08-15T07:47:56Z</time>
      </trkpt>
      <trkpt lat="42.70663" lon="1.54149">
        <ele>1845</ele>
        <time>2014-08-15T07:48:13Z</time>
      </trkpt>
      <trkpt lat="42.70658" lon="1.54141">
        <ele>1845</ele>
        <time>2014-08-15T07:48:26Z</time>
      </trkpt>
      <trkpt lat="42.70655" lon="1.5414">
        <ele>1847</ele>
        <time>2014-08-15T07:48:40Z</time>
      </trkpt>
      <trkpt lat="42.70649" lon="1.54145">
        <ele>1850</ele>
        <time>2014-08-15T07:48:56Z</time>
      </trkpt>
      <trkpt lat="42.70647" lon="1.54144">
        <ele>1852</ele>
        <time>2014-08-15T07:49:07Z</time>
      </trkpt>
      <trkpt lat="42.70645" lon="1.54151">
        <ele>1854</ele>
        <time>2014-08-15T07:49:23Z</time>
      </trkpt>
      <trkpt lat="42.70642" lon="1.54157">
        <ele>1855</ele>
        <time>2014-08-15T07:49:37Z</time>
      </trkpt>
      <trkpt lat="42.70635" lon="1.54154">
        <ele>1857</ele>
        <time>2014-08-15T07:49:50Z</time>
      </trkpt>
      <trkpt lat="42.70623" lon="1.54155">
        <ele>1858</ele>
        <time>2014-08-15T07:50:06Z</time>
      </trkpt>
      <trkpt lat="42.70624" lon="1.54156">
        <ele>1858</ele>
        <time>2014-08-15T07:50:22Z</time>
      </trkpt>
      <trkpt lat="42.70626" lon="1.54154">
        <ele>1857</ele>
        <time>2014-08-15T07:50:32Z</time>
      </trkpt>
      <trkpt lat="42.70626" lon="1.54153">
        <ele>1857</ele>
        <time>2014-08-15T07:51:03Z</time>
      </trkpt>
      <trkpt lat="42.70625" lon="1.54151">
        <ele>1856</ele>
        <time>2014-08-15T07:51:35Z</time>
      </trkpt>
      <trkpt lat="42.70625" lon="1.54153">
        <ele>1857</ele>
        <time>2014-08-15T07:51:59Z</time>
      </trkpt>
      <trkpt lat="42.70624" lon="1.54156">
        <ele>1858</ele>
        <time>2014-08-15T07:52:12Z</time>
      </trkpt>
      <trkpt lat="42.70627" lon="1.54155">
        <ele>1858</ele>
        <time>2014-08-15T07:52:29Z</time>
      </trkpt>
      <trkpt lat="42.70622" lon="1.5416">
        <ele>1860</ele>
        <time>2014-08-15T07:52:44Z</time>
      </trkpt>
      <trkpt lat="42.70622" lon="1.54161">
        <ele>1860</ele>
        <time>2014-08-15T07:52:45Z</time>
      </trkpt>
      <trkpt lat="42.70613" lon="1.54156">
        <ele>1862</ele>
        <time>2014-08-15T07:53:00Z</time>
      </trkpt>
      <trkpt lat="42.70606" lon="1.54147">
        <ele>1865</ele>
        <time>2014-08-15T07:53:13Z</time>
      </trkpt>
      <trkpt lat="42.70599" lon="1.54149">
        <ele>1866</ele>
        <time>2014-08-15T07:53:27Z</time>
      </trkpt>
      <trkpt lat="42.70594" lon="1.54147">
        <ele>1866</ele>
        <time>2014-08-15T07:53:40Z</time>
      </trkpt>
      <trkpt lat="42.70591" lon="1.54141">
        <ele>1868</ele>
        <time>2014-08-15T07:53:53Z</time>
      </trkpt>
      <trkpt lat="42.7059" lon="1.54132">
        <ele>1869</ele>
        <time>2014-08-15T07:54:05Z</time>
      </trkpt>
      <trkpt lat="42.70588" lon="1.5414">
        <ele>1871</ele>
        <time>2014-08-15T07:54:21Z</time>
      </trkpt>
      <trkpt lat="42.70584" lon="1.54145">
        <ele>1872</ele>
        <time>2014-08-15T07:54:34Z</time>
      </trkpt>
      <trkpt lat="42.70581" lon="1.54151">
        <ele>1873</ele>
        <time>2014-08-15T07:54:48Z</time>
      </trkpt>
      <trkpt lat="42.70577" lon="1.54152">
        <ele>1876</ele>
        <time>2014-08-15T07:55:04Z</time>
      </trkpt>
      <trkpt lat="42.70575" lon="1.54153">
        <ele>1878</ele>
        <time>2014-08-15T07:55:20Z</time>
      </trkpt>
      <trkpt lat="42.70569" lon="1.5415">
        <ele>1880</ele>
        <time>2014-08-15T07:55:34Z</time>
      </trkpt>
      <trkpt lat="42.70562" lon="1.54151">
        <ele>1882</ele>
        <time>2014-08-15T07:55:51Z</time>
      </trkpt>
      <trkpt lat="42.7056" lon="1.54146">
        <ele>1885</ele>
        <time>2014-08-15T07:56:05Z</time>
      </trkpt>
      <trkpt lat="42.70558" lon="1.54146">
        <ele>1888</ele>
        <time>2014-08-15T07:56:21Z</time>
      </trkpt>
      <trkpt lat="42.70553" lon="1.54145">
        <ele>1890</ele>
        <time>2014-08-15T07:56:35Z</time>
      </trkpt>
      <trkpt lat="42.70551" lon="1.54142">
        <ele>1891</ele>
        <time>2014-08-15T07:56:52Z</time>
      </trkpt>
      <trkpt lat="42.70551" lon="1.54137">
        <ele>1893</ele>
        <time>2014-08-15T07:57:08Z</time>
      </trkpt>
      <trkpt lat="42.70544" lon="1.54142">
        <ele>1895</ele>
        <time>2014-08-15T07:57:24Z</time>
      </trkpt>
      <trkpt lat="42.70542" lon="1.54133">
        <ele>1898</ele>
        <time>2014-08-15T07:57:40Z</time>
      </trkpt>
      <trkpt lat="42.70542" lon="1.54127">
        <ele>1899</ele>
        <time>2014-08-15T07:57:56Z</time>
      </trkpt>
      <trkpt lat="42.70544" lon="1.54122">
        <ele>1900</ele>
        <time>2014-08-15T07:58:17Z</time>
      </trkpt>
      <trkpt lat="42.70544" lon="1.54117">
        <ele>1902</ele>
        <time>2014-08-15T07:58:28Z</time>
      </trkpt>
      <trkpt lat="42.70545" lon="1.54111">
        <ele>1903</ele>
        <time>2014-08-15T07:58:39Z</time>
      </trkpt>
      <trkpt lat="42.70543" lon="1.54106">
        <ele>1904</ele>
        <time>2014-08-15T07:58:52Z</time>
      </trkpt>
      <trkpt lat="42.70543" lon="1.54101">
        <ele>1905</ele>
        <time>2014-08-15T07:59:04Z</time>
      </trkpt>
      <trkpt lat="42.7054" lon="1.54099">
        <ele>1907</ele>
        <time>2014-08-15T07:59:20Z</time>
      </trkpt>
      <trkpt lat="42.70534" lon="1.54108">
        <ele>1910</ele>
        <time>2014-08-15T07:59:35Z</time>
      </trkpt>
      <trkpt lat="42.70529" lon="1.54107">
        <ele>1911</ele>
        <time>2014-08-15T07:59:47Z</time>
      </trkpt>
      <trkpt lat="42.70528" lon="1.54102">
        <ele>1913</ele>
        <time>2014-08-15T07:59:59Z</time>
      </trkpt>
      <trkpt lat="42.70526" lon="1.541">
        <ele>1915</ele>
        <time>2014-08-15T08:00:13Z</time>
      </trkpt>
      <trkpt lat="42.70524" lon="1.54105">
        <ele>1917</ele>
        <time>2014-08-15T08:00:30Z</time>
      </trkpt>
      <trkpt lat="42.7052" lon="1.54112">
        <ele>1919</ele>
        <time>2014-08-15T08:00:45Z</time>
      </trkpt>
      <trkpt lat="42.70517" lon="1.54108">
        <ele>1921</ele>
        <time>2014-08-15T08:01:00Z</time>
      </trkpt>
      <trkpt lat="42.70517" lon="1.54101">
        <ele>1922</ele>
        <time>2014-08-15T08:01:13Z</time>
      </trkpt>
      <trkpt lat="42.70516" lon="1.54094">
        <ele>1924</ele>
        <time>2014-08-15T08:01:26Z</time>
      </trkpt>
      <trkpt lat="42.70514" lon="1.54089">
        <ele>1927</ele>
        <time>2014-08-15T08:01:41Z</time>
      </trkpt>
      <trkpt lat="42.70513" lon="1.5408">
        <ele>1928</ele>
        <time>2014-08-15T08:01:53Z</time>
      </trkpt>
      <trkpt lat="42.7051" lon="1.54075">
        <ele>1931</ele>
        <time>2014-08-15T08:02:10Z</time>
      </trkpt>
      <trkpt lat="42.70505" lon="1.54074">
        <ele>1932</ele>
        <time>2014-08-15T08:02:25Z</time>
      </trkpt>
      <trkpt lat="42.70504" lon="1.54078">
        <ele>1934</ele>
        <time>2014-08-15T08:02:38Z</time>
      </trkpt>
      <trkpt lat="42.705" lon="1.5408">
        <ele>1937</ele>
        <time>2014-08-15T08:02:56Z</time>
      </trkpt>
      <trkpt lat="42.70496" lon="1.54083">
        <ele>1940</ele>
        <time>2014-08-15T08:03:13Z</time>
      </trkpt>
      <trkpt lat="42.70495" lon="1.54086">
        <ele>1941</ele>
        <time>2014-08-15T08:03:24Z</time>
      </trkpt>
      <trkpt lat="42.70496" lon="1.54073">
        <ele>1944</ele>
        <time>2014-08-15T08:03:40Z</time>
      </trkpt>
      <trkpt lat="42.70494" lon="1.54069">
        <ele>1945</ele>
        <time>2014-08-15T08:03:52Z</time>
      </trkpt>
      <trkpt lat="42.70492" lon="1.54062">
        <ele>1947</ele>
        <time>2014-08-15T08:04:06Z</time>
      </trkpt>
      <trkpt lat="42.70487" lon="1.54067">
        <ele>1949</ele>
        <time>2014-08-15T08:04:19Z</time>
      </trkpt>
      <trkpt lat="42.70479" lon="1.54069">
        <ele>1951</ele>
        <time>2014-08-15T08:04:31Z</time>
      </trkpt>
      <trkpt lat="42.70476" lon="1.54066">
        <ele>1953</ele>
        <time>2014-08-15T08:04:44Z</time>
      </trkpt>
      <trkpt lat="42.70477" lon="1.5406">
        <ele>1954</ele>
        <time>2014-08-15T08:04:58Z</time>
      </trkpt>
      <trkpt lat="42.70468" lon="1.54062">
        <ele>1956</ele>
        <time>2014-08-15T08:05:13Z</time>
      </trkpt>
      <trkpt lat="42.70465" lon="1.54062">
        <ele>1956</ele>
        <time>2014-08-15T08:05:19Z</time>
      </trkpt>
      <trkpt lat="42.70459" lon="1.54069">
        <ele>1958</ele>
        <time>2014-08-15T08:05:32Z</time>
      </trkpt>
      <trkpt lat="42.70455" lon="1.54067">
        <ele>1960</ele>
        <time>2014-08-15T08:05:47Z</time>
      </trkpt>
      <trkpt lat="42.70457" lon="1.54062">
        <ele>1962</ele>
        <time>2014-08-15T08:06:00Z</time>
      </trkpt>
      <trkpt lat="42.70461" lon="1.5405">
        <ele>1964</ele>
        <time>2014-08-15T08:06:14Z</time>
      </trkpt>
      <trkpt lat="42.70455" lon="1.54054">
        <ele>1966</ele>
        <time>2014-08-15T08:06:28Z</time>
      </trkpt>
      <trkpt lat="42.70455" lon="1.5405">
        <ele>1968</ele>
        <time>2014-08-15T08:06:42Z</time>
      </trkpt>
      <trkpt lat="42.70454" lon="1.54038">
        <ele>1970</ele>
        <time>2014-08-15T08:07:01Z</time>
      </trkpt>
      <trkpt lat="42.7045" lon="1.54039">
        <ele>1973</ele>
        <time>2014-08-15T08:07:14Z</time>
      </trkpt>
      <trkpt lat="42.70446" lon="1.54045">
        <ele>1974</ele>
        <time>2014-08-15T08:07:28Z</time>
      </trkpt>
      <trkpt lat="42.70439" lon="1.54045">
        <ele>1976</ele>
        <time>2014-08-15T08:07:42Z</time>
      </trkpt>
      <trkpt lat="42.70433" lon="1.54045">
        <ele>1978</ele>
        <time>2014-08-15T08:07:55Z</time>
      </trkpt>
      <trkpt lat="42.70424" lon="1.54051">
        <ele>1979</ele>
        <time>2014-08-15T08:08:08Z</time>
      </trkpt>
      <trkpt lat="42.70421" lon="1.54049">
        <ele>1980</ele>
        <time>2014-08-15T08:08:20Z</time>
      </trkpt>
      <trkpt lat="42.70417" lon="1.54049">
        <ele>1982</ele>
        <time>2014-08-15T08:08:34Z</time>
      </trkpt>
      <trkpt lat="42.70412" lon="1.54054">
        <ele>1981</ele>
        <time>2014-08-15T08:08:47Z</time>
      </trkpt>
      <trkpt lat="42.70404" lon="1.5405">
        <ele>1982</ele>
        <time>2014-08-15T08:09:02Z</time>
      </trkpt>
      <trkpt lat="42.70401" lon="1.54052">
        <ele>1982</ele>
        <time>2014-08-15T08:09:08Z</time>
      </trkpt>
      <trkpt lat="42.70389" lon="1.54044">
        <ele>1983</ele>
        <time>2014-08-15T08:09:24Z</time>
      </trkpt>
      <trkpt lat="42.70379" lon="1.54034">
        <ele>1983</ele>
        <time>2014-08-15T08:09:38Z</time>
      </trkpt>
      <trkpt lat="42.70374" lon="1.54032">
        <ele>1984</ele>
        <time>2014-08-15T08:09:46Z</time>
      </trkpt>
      <trkpt lat="42.70364" lon="1.54023">
        <ele>1984</ele>
        <time>2014-08-15T08:10:01Z</time>
      </trkpt>
      <trkpt lat="42.70355" lon="1.5402">
        <ele>1986</ele>
        <time>2014-08-15T08:10:15Z</time>
      </trkpt>
      <trkpt lat="42.70346" lon="1.54021">
        <ele>1987</ele>
        <time>2014-08-15T08:10:29Z</time>
      </trkpt>
      <trkpt lat="42.70341" lon="1.54023">
        <ele>1989</ele>
        <time>2014-08-15T08:10:43Z</time>
      </trkpt>
      <trkpt lat="42.70341" lon="1.5403">
        <ele>1990</ele>
        <time>2014-08-15T08:10:56Z</time>
      </trkpt>
      <trkpt lat="42.70337" lon="1.54037">
        <ele>1991</ele>
        <time>2014-08-15T08:11:11Z</time>
      </trkpt>
      <trkpt lat="42.70335" lon="1.54038">
        <ele>1991</ele>
        <time>2014-08-15T08:11:35Z</time>
      </trkpt>
      <trkpt lat="42.70333" lon="1.54044">
        <ele>1991</ele>
        <time>2014-08-15T08:11:42Z</time>
      </trkpt>
      <trkpt lat="42.70325" lon="1.54051">
        <ele>1991</ele>
        <time>2014-08-15T08:11:54Z</time>
      </trkpt>
      <trkpt lat="42.70322" lon="1.54056">
        <ele>1994</ele>
        <time>2014-08-15T08:12:06Z</time>
      </trkpt>
      <trkpt lat="42.70319" lon="1.5406">
        <ele>1996</ele>
        <time>2014-08-15T08:12:21Z</time>
      </trkpt>
      <trkpt lat="42.70324" lon="1.54065">
        <ele>1998</ele>
        <time>2014-08-15T08:12:34Z</time>
      </trkpt>
      <trkpt lat="42.70325" lon="1.54076">
        <ele>2000</ele>
        <time>2014-08-15T08:12:47Z</time>
      </trkpt>
      <trkpt lat="42.70325" lon="1.54082">
        <ele>2001</ele>
        <time>2014-08-15T08:12:59Z</time>
      </trkpt>
      <trkpt lat="42.70323" lon="1.54091">
        <ele>2004</ele>
        <time>2014-08-15T08:13:14Z</time>
      </trkpt>
      <trkpt lat="42.70323" lon="1.54096">
        <ele>2005</ele>
        <time>2014-08-15T08:13:27Z</time>
      </trkpt>
      <trkpt lat="42.70321" lon="1.54102">
        <ele>2007</ele>
        <time>2014-08-15T08:13:42Z</time>
      </trkpt>
      <trkpt lat="42.70313" lon="1.54098">
        <ele>2009</ele>
        <time>2014-08-15T08:13:55Z</time>
      </trkpt>
      <trkpt lat="42.70312" lon="1.54105">
        <ele>2010</ele>
        <time>2014-08-15T08:14:08Z</time>
      </trkpt>
      <trkpt lat="42.70313" lon="1.54107">
        <ele>2012</ele>
        <time>2014-08-15T08:14:20Z</time>
      </trkpt>
      <trkpt lat="42.70317" lon="1.5411">
        <ele>2014</ele>
        <time>2014-08-15T08:14:35Z</time>
      </trkpt>
      <trkpt lat="42.7032" lon="1.54111">
        <ele>2013</ele>
        <time>2014-08-15T08:14:41Z</time>
      </trkpt>
      <trkpt lat="42.70328" lon="1.54118">
        <ele>2013</ele>
        <time>2014-08-15T08:14:55Z</time>
      </trkpt>
      <trkpt lat="42.70332" lon="1.54121">
        <ele>2015</ele>
        <time>2014-08-15T08:15:08Z</time>
      </trkpt>
      <trkpt lat="42.7034" lon="1.54126">
        <ele>2016</ele>
        <time>2014-08-15T08:15:22Z</time>
      </trkpt>
      <trkpt lat="42.70346" lon="1.54129">
        <ele>2016</ele>
        <time>2014-08-15T08:15:35Z</time>
      </trkpt>
      <trkpt lat="42.70349" lon="1.54134">
        <ele>2019</ele>
        <time>2014-08-15T08:15:50Z</time>
      </trkpt>
      <trkpt lat="42.70353" lon="1.54138">
        <ele>2020</ele>
        <time>2014-08-15T08:16:05Z</time>
      </trkpt>
      <trkpt lat="42.70358" lon="1.54147">
        <ele>2020</ele>
        <time>2014-08-15T08:16:20Z</time>
      </trkpt>
      <trkpt lat="42.70364" lon="1.54153">
        <ele>2019</ele>
        <time>2014-08-15T08:16:33Z</time>
      </trkpt>
      <trkpt lat="42.70365" lon="1.54159">
        <ele>2021</ele>
        <time>2014-08-15T08:16:46Z</time>
      </trkpt>
      <trkpt lat="42.70367" lon="1.54166">
        <ele>2023</ele>
        <time>2014-08-15T08:17:01Z</time>
      </trkpt>
      <trkpt lat="42.70372" lon="1.54174">
        <ele>2024</ele>
        <time>2014-08-15T08:17:16Z</time>
      </trkpt>
      <trkpt lat="42.70372" lon="1.54181">
        <ele>2026</ele>
        <time>2014-08-15T08:17:33Z</time>
      </trkpt>
      <trkpt lat="42.70375" lon="1.54187">
        <ele>2026</ele>
        <time>2014-08-15T08:17:44Z</time>
      </trkpt>
      <trkpt lat="42.70376" lon="1.54187">
        <ele>2026</ele>
        <time>2014-08-15T08:17:48Z</time>
      </trkpt>
      <trkpt lat="42.70382" lon="1.54196">
        <ele>2028</ele>
        <time>2014-08-15T08:18:02Z</time>
      </trkpt>
      <trkpt lat="42.70386" lon="1.54202">
        <ele>2028</ele>
        <time>2014-08-15T08:18:13Z</time>
      </trkpt>
      <trkpt lat="42.70389" lon="1.54214">
        <ele>2028</ele>
        <time>2014-08-15T08:18:26Z</time>
      </trkpt>
      <trkpt lat="42.70389" lon="1.54226">
        <ele>2027</ele>
        <time>2014-08-15T08:18:41Z</time>
      </trkpt>
      <trkpt lat="42.70391" lon="1.54236">
        <ele>2026</ele>
        <time>2014-08-15T08:18:55Z</time>
      </trkpt>
      <trkpt lat="42.7039" lon="1.5424">
        <ele>2025</ele>
        <time>2014-08-15T08:19:00Z</time>
      </trkpt>
      <trkpt lat="42.70388" lon="1.5425">
        <ele>2024</ele>
        <time>2014-08-15T08:19:14Z</time>
      </trkpt>
      <trkpt lat="42.70388" lon="1.54264">
        <ele>2023</ele>
        <time>2014-08-15T08:19:30Z</time>
      </trkpt>
      <trkpt lat="42.70385" lon="1.54272">
        <ele>2023</ele>
        <time>2014-08-15T08:19:43Z</time>
      </trkpt>
      <trkpt lat="42.70382" lon="1.54281">
        <ele>2021</ele>
        <time>2014-08-15T08:19:56Z</time>
      </trkpt>
      <trkpt lat="42.7038" lon="1.5429">
        <ele>2019</ele>
        <time>2014-08-15T08:20:09Z</time>
      </trkpt>
      <trkpt lat="42.70378" lon="1.54296">
        <ele>2018</ele>
        <time>2014-08-15T08:20:22Z</time>
      </trkpt>
      <trkpt lat="42.70377" lon="1.54305">
        <ele>2016</ele>
        <time>2014-08-15T08:20:35Z</time>
      </trkpt>
      <trkpt lat="42.70372" lon="1.5431">
        <ele>2015</ele>
        <time>2014-08-15T08:20:47Z</time>
      </trkpt>
      <trkpt lat="42.70371" lon="1.54316">
        <ele>2013</ele>
        <time>2014-08-15T08:20:59Z</time>
      </trkpt>
      <trkpt lat="42.70369" lon="1.54321">
        <ele>2012</ele>
        <time>2014-08-15T08:21:11Z</time>
      </trkpt>
      <trkpt lat="42.70365" lon="1.54326">
        <ele>2010</ele>
        <time>2014-08-15T08:21:21Z</time>
      </trkpt>
      <trkpt lat="42.70362" lon="1.54331">
        <ele>2009</ele>
        <time>2014-08-15T08:21:32Z</time>
      </trkpt>
      <trkpt lat="42.70357" lon="1.54338">
        <ele>2008</ele>
        <time>2014-08-15T08:21:48Z</time>
      </trkpt>
      <trkpt lat="42.70356" lon="1.5434">
        <ele>2008</ele>
        <time>2014-08-15T08:21:50Z</time>
      </trkpt>
      <trkpt lat="42.70349" lon="1.54347">
        <ele>2010</ele>
        <time>2014-08-15T08:22:03Z</time>
      </trkpt>
      <trkpt lat="42.70342" lon="1.54353">
        <ele>2008</ele>
        <time>2014-08-15T08:22:15Z</time>
      </trkpt>
      <trkpt lat="42.70333" lon="1.54355">
        <ele>2009</ele>
        <time>2014-08-15T08:22:27Z</time>
      </trkpt>
      <trkpt lat="42.70323" lon="1.54361">
        <ele>2008</ele>
        <time>2014-08-15T08:22:41Z</time>
      </trkpt>
      <trkpt lat="42.70317" lon="1.54367">
        <ele>2007</ele>
        <time>2014-08-15T08:22:53Z</time>
      </trkpt>
      <trkpt lat="42.70317" lon="1.54367">
        <ele>2007</ele>
        <time>2014-08-15T08:22:54Z</time>
      </trkpt>
      <trkpt lat="42.70317" lon="1.54373">
        <ele>2007</ele>
        <time>2014-08-15T08:23:00Z</time>
      </trkpt>
      <trkpt lat="42.70315" lon="1.54381">
        <ele>2008</ele>
        <time>2014-08-15T08:23:12Z</time>
      </trkpt>
      <trkpt lat="42.70315" lon="1.54382">
        <ele>2007</ele>
        <time>2014-08-15T08:23:13Z</time>
      </trkpt>
      <trkpt lat="42.7031" lon="1.54388">
        <ele>2007</ele>
        <time>2014-08-15T08:23:19Z</time>
      </trkpt>
      <trkpt lat="42.70306" lon="1.5439">
        <ele>2006</ele>
        <time>2014-08-15T08:23:33Z</time>
      </trkpt>
      <trkpt lat="42.70299" lon="1.54398">
        <ele>2004</ele>
        <time>2014-08-15T08:23:46Z</time>
      </trkpt>
      <trkpt lat="42.70297" lon="1.54399">
        <ele>2004</ele>
        <time>2014-08-15T08:23:49Z</time>
      </trkpt>
      <trkpt lat="42.70286" lon="1.54408">
        <ele>2003</ele>
        <time>2014-08-15T08:24:04Z</time>
      </trkpt>
      <trkpt lat="42.70283" lon="1.54415">
        <ele>2004</ele>
        <time>2014-08-15T08:24:17Z</time>
      </trkpt>
      <trkpt lat="42.70281" lon="1.54426">
        <ele>2006</ele>
        <time>2014-08-15T08:24:32Z</time>
      </trkpt>
      <trkpt lat="42.70277" lon="1.54439">
        <ele>2007</ele>
        <time>2014-08-15T08:24:47Z</time>
      </trkpt>
      <trkpt lat="42.70277" lon="1.54438">
        <ele>2006</ele>
        <time>2014-08-15T08:25:01Z</time>
      </trkpt>
      <trkpt lat="42.70274" lon="1.54445">
        <ele>2006</ele>
        <time>2014-08-15T08:25:16Z</time>
      </trkpt>
      <trkpt lat="42.70275" lon="1.54446">
        <ele>2006</ele>
        <time>2014-08-15T08:25:19Z</time>
      </trkpt>
      <trkpt lat="42.70273" lon="1.54453">
        <ele>2005</ele>
        <time>2014-08-15T08:25:24Z</time>
      </trkpt>
      <trkpt lat="42.70265" lon="1.54462">
        <ele>2003</ele>
        <time>2014-08-15T08:25:39Z</time>
      </trkpt>
      <trkpt lat="42.70262" lon="1.5447">
        <ele>2002</ele>
        <time>2014-08-15T08:25:51Z</time>
      </trkpt>
      <trkpt lat="42.70259" lon="1.5448">
        <ele>2001</ele>
        <time>2014-08-15T08:26:05Z</time>
      </trkpt>
      <trkpt lat="42.70251" lon="1.5448">
        <ele>2002</ele>
        <time>2014-08-15T08:26:17Z</time>
      </trkpt>
      <trkpt lat="42.70245" lon="1.54485">
        <ele>2004</ele>
        <time>2014-08-15T08:26:29Z</time>
      </trkpt>
      <trkpt lat="42.70245" lon="1.5449">
        <ele>2004</ele>
        <time>2014-08-15T08:26:36Z</time>
      </trkpt>
      <trkpt lat="42.70243" lon="1.54506">
        <ele>2003</ele>
        <time>2014-08-15T08:26:49Z</time>
      </trkpt>
      <trkpt lat="42.70243" lon="1.54509">
        <ele>2003</ele>
        <time>2014-08-15T08:26:51Z</time>
      </trkpt>
      <trkpt lat="42.70235" lon="1.5452">
        <ele>2003</ele>
        <time>2014-08-15T08:27:05Z</time>
      </trkpt>
      <trkpt lat="42.70231" lon="1.54529">
        <ele>2004</ele>
        <time>2014-08-15T08:27:15Z</time>
      </trkpt>
      <trkpt lat="42.70229" lon="1.54538">
        <ele>2004</ele>
        <time>2014-08-15T08:27:28Z</time>
      </trkpt>
      <trkpt lat="42.70224" lon="1.54544">
        <ele>2005</ele>
        <time>2014-08-15T08:27:42Z</time>
      </trkpt>
      <trkpt lat="42.70218" lon="1.54547">
        <ele>2006</ele>
        <time>2014-08-15T08:27:59Z</time>
      </trkpt>
      <trkpt lat="42.70206" lon="1.54546">
        <ele>2007</ele>
        <time>2014-08-15T08:28:15Z</time>
      </trkpt>
      <trkpt lat="42.70201" lon="1.54549">
        <ele>2008</ele>
        <time>2014-08-15T08:28:30Z</time>
      </trkpt>
      <trkpt lat="42.702" lon="1.54549">
        <ele>2008</ele>
        <time>2014-08-15T08:28:51Z</time>
      </trkpt>
      <trkpt lat="42.70197" lon="1.54552">
        <ele>2007</ele>
        <time>2014-08-15T08:29:06Z</time>
      </trkpt>
      <trkpt lat="42.70192" lon="1.54552">
        <ele>2007</ele>
        <time>2014-08-15T08:29:35Z</time>
      </trkpt>
      <trkpt lat="42.70186" lon="1.54565">
        <ele>2008</ele>
        <time>2014-08-15T08:29:50Z</time>
      </trkpt>
      <trkpt lat="42.70183" lon="1.54567">
        <ele>2007</ele>
        <time>2014-08-15T08:30:03Z</time>
      </trkpt>
      <trkpt lat="42.70183" lon="1.54568">
        <ele>2007</ele>
        <time>2014-08-15T08:30:05Z</time>
      </trkpt>
      <trkpt lat="42.70181" lon="1.54582">
        <ele>2007</ele>
        <time>2014-08-15T08:30:19Z</time>
      </trkpt>
      <trkpt lat="42.70177" lon="1.54595">
        <ele>2006</ele>
        <time>2014-08-15T08:30:31Z</time>
      </trkpt>
      <trkpt lat="42.70173" lon="1.54605">
        <ele>2008</ele>
        <time>2014-08-15T08:30:43Z</time>
      </trkpt>
      <trkpt lat="42.70168" lon="1.54621">
        <ele>2008</ele>
        <time>2014-08-15T08:30:56Z</time>
      </trkpt>
      <trkpt lat="42.70168" lon="1.54629">
        <ele>2008</ele>
        <time>2014-08-15T08:31:03Z</time>
      </trkpt>
      <trkpt lat="42.70169" lon="1.54637">
        <ele>2008</ele>
        <time>2014-08-15T08:31:11Z</time>
      </trkpt>
      <trkpt lat="42.7017" lon="1.54654">
        <ele>2009</ele>
        <time>2014-08-15T08:31:26Z</time>
      </trkpt>
      <trkpt lat="42.70174" lon="1.54666">
        <ele>2009</ele>
        <time>2014-08-15T08:31:37Z</time>
      </trkpt>
      <trkpt lat="42.70175" lon="1.54687">
        <ele>2010</ele>
        <time>2014-08-15T08:31:54Z</time>
      </trkpt>
      <trkpt lat="42.70174" lon="1.54703">
        <ele>2011</ele>
        <time>2014-08-15T08:32:08Z</time>
      </trkpt>
      <trkpt lat="42.70172" lon="1.54715">
        <ele>2011</ele>
        <time>2014-08-15T08:32:20Z</time>
      </trkpt>
      <trkpt lat="42.70171" lon="1.54731">
        <ele>2011</ele>
        <time>2014-08-15T08:32:33Z</time>
      </trkpt>
      <trkpt lat="42.70172" lon="1.54739">
        <ele>2011</ele>
        <time>2014-08-15T08:32:48Z</time>
      </trkpt>
      <trkpt lat="42.70176" lon="1.54738">
        <ele>2012</ele>
        <time>2014-08-15T08:33:05Z</time>
      </trkpt>
      <trkpt lat="42.70184" lon="1.5474">
        <ele>2015</ele>
        <time>2014-08-15T08:33:19Z</time>
      </trkpt>
      <trkpt lat="42.7019" lon="1.54738">
        <ele>2017</ele>
        <time>2014-08-15T08:33:35Z</time>
      </trkpt>
      <trkpt lat="42.70197" lon="1.54739">
        <ele>2019</ele>
        <time>2014-08-15T08:33:51Z</time>
      </trkpt>
      <trkpt lat="42.70205" lon="1.54734">
        <ele>2021</ele>
        <time>2014-08-15T08:34:08Z</time>
      </trkpt>
      <trkpt lat="42.70212" lon="1.54725">
        <ele>2023</ele>
        <time>2014-08-15T08:34:23Z</time>
      </trkpt>
      <trkpt lat="42.70214" lon="1.5472">
        <ele>2025</ele>
        <time>2014-08-15T08:34:36Z</time>
      </trkpt>
      <trkpt lat="42.70214" lon="1.54717">
        <ele>2025</ele>
        <time>2014-08-15T08:34:39Z</time>
      </trkpt>
      <trkpt lat="42.70222" lon="1.5471">
        <ele>2026</ele>
        <time>2014-08-15T08:34:54Z</time>
      </trkpt>
      <trkpt lat="42.70235" lon="1.54708">
        <ele>2027</ele>
        <time>2014-08-15T08:35:09Z</time>
      </trkpt>
      <trkpt lat="42.70245" lon="1.5471">
        <ele>2028</ele>
        <time>2014-08-15T08:35:23Z</time>
      </trkpt>
      <trkpt lat="42.70249" lon="1.54713">
        <ele>2028</ele>
        <time>2014-08-15T08:35:30Z</time>
      </trkpt>
      <trkpt lat="42.70258" lon="1.54724">
        <ele>2029</ele>
        <time>2014-08-15T08:35:48Z</time>
      </trkpt>
      <trkpt lat="42.70264" lon="1.54723">
        <ele>2031</ele>
        <time>2014-08-15T08:36:03Z</time>
      </trkpt>
      <trkpt lat="42.70273" lon="1.54733">
        <ele>2033</ele>
        <time>2014-08-15T08:36:19Z</time>
      </trkpt>
      <trkpt lat="42.70281" lon="1.54743">
        <ele>2034</ele>
        <time>2014-08-15T08:36:34Z</time>
      </trkpt>
      <trkpt lat="42.70285" lon="1.54754">
        <ele>2035</ele>
        <time>2014-08-15T08:36:47Z</time>
      </trkpt>
      <trkpt lat="42.7029" lon="1.54762">
        <ele>2036</ele>
        <time>2014-08-15T08:37:03Z</time>
      </trkpt>
      <trkpt lat="42.70294" lon="1.54765">
        <ele>2037</ele>
        <time>2014-08-15T08:37:16Z</time>
      </trkpt>
      <trkpt lat="42.70293" lon="1.54764">
        <ele>2037</ele>
        <time>2014-08-15T08:37:41Z</time>
      </trkpt>
      <trkpt lat="42.70296" lon="1.54764">
        <ele>2037</ele>
        <time>2014-08-15T08:37:58Z</time>
      </trkpt>
      <trkpt lat="42.70293" lon="1.54766">
        <ele>2036</ele>
        <time>2014-08-15T08:38:36Z</time>
      </trkpt>
      <trkpt lat="42.7029" lon="1.54764">
        <ele>2037</ele>
        <time>2014-08-15T08:38:57Z</time>
      </trkpt>
      <trkpt lat="42.70293" lon="1.54769">
        <ele>2036</ele>
        <time>2014-08-15T08:39:11Z</time>
      </trkpt>
      <trkpt lat="42.70295" lon="1.54768">
        <ele>2036</ele>
        <time>2014-08-15T08:39:35Z</time>
      </trkpt>
      <trkpt lat="42.70295" lon="1.54765">
        <ele>2036</ele>
        <time>2014-08-15T08:39:59Z</time>
      </trkpt>
      <trkpt lat="42.70296" lon="1.54766">
        <ele>2036</ele>
        <time>2014-08-15T08:40:26Z</time>
      </trkpt>
      <trkpt lat="42.70294" lon="1.54764">
        <ele>2037</ele>
        <time>2014-08-15T08:40:51Z</time>
      </trkpt>
      <trkpt lat="42.70295" lon="1.54765">
        <ele>2037</ele>
        <time>2014-08-15T08:41:12Z</time>
      </trkpt>
      <trkpt lat="42.70298" lon="1.54764">
        <ele>2037</ele>
        <time>2014-08-15T08:41:38Z</time>
      </trkpt>
      <trkpt lat="42.70298" lon="1.54767">
        <ele>2036</ele>
        <time>2014-08-15T08:42:14Z</time>
      </trkpt>
      <trkpt lat="42.70296" lon="1.54766">
        <ele>2037</ele>
        <time>2014-08-15T08:42:28Z</time>
      </trkpt>
      <trkpt lat="42.70293" lon="1.54761">
        <ele>2037</ele>
        <time>2014-08-15T08:42:50Z</time>
      </trkpt>
      <trkpt lat="42.70286" lon="1.54768">
        <ele>2037</ele>
        <time>2014-08-15T08:42:59Z</time>
      </trkpt>
      <trkpt lat="42.70279" lon="1.54773">
        <ele>2035</ele>
        <time>2014-08-15T08:43:12Z</time>
      </trkpt>
      <trkpt lat="42.70274" lon="1.54779">
        <ele>2035</ele>
        <time>2014-08-15T08:43:26Z</time>
      </trkpt>
      <trkpt lat="42.70269" lon="1.5478">
        <ele>2034</ele>
        <time>2014-08-15T08:43:32Z</time>
      </trkpt>
      <trkpt lat="42.70261" lon="1.54781">
        <ele>2032</ele>
        <time>2014-08-15T08:43:41Z</time>
      </trkpt>
      <trkpt lat="42.7025" lon="1.54785">
        <ele>2030</ele>
        <time>2014-08-15T08:43:55Z</time>
      </trkpt>
      <trkpt lat="42.7024" lon="1.54788">
        <ele>2029</ele>
        <time>2014-08-15T08:44:08Z</time>
      </trkpt>
      <trkpt lat="42.70237" lon="1.54788">
        <ele>2028</ele>
        <time>2014-08-15T08:44:11Z</time>
      </trkpt>
      <trkpt lat="42.70236" lon="1.54788">
        <ele>2029</ele>
        <time>2014-08-15T08:44:12Z</time>
      </trkpt>
      <trkpt lat="42.70234" lon="1.54788">
        <ele>2028</ele>
        <time>2014-08-15T08:44:14Z</time>
      </trkpt>
      <trkpt lat="42.70222" lon="1.54791">
        <ele>2027</ele>
        <time>2014-08-15T08:44:30Z</time>
      </trkpt>
      <trkpt lat="42.70221" lon="1.54789">
        <ele>2026</ele>
        <time>2014-08-15T08:44:31Z</time>
      </trkpt>
      <trkpt lat="42.7022" lon="1.54784">
        <ele>2027</ele>
        <time>2014-08-15T08:44:51Z</time>
      </trkpt>
      <trkpt lat="42.70223" lon="1.54793">
        <ele>2025</ele>
        <time>2014-08-15T08:45:01Z</time>
      </trkpt>
      <trkpt lat="42.70223" lon="1.54797">
        <ele>2026</ele>
        <time>2014-08-15T08:45:14Z</time>
      </trkpt>
      <trkpt lat="42.70219" lon="1.54802">
        <ele>2025</ele>
        <time>2014-08-15T08:45:39Z</time>
      </trkpt>
      <trkpt lat="42.70216" lon="1.54811">
        <ele>2022</ele>
        <time>2014-08-15T08:45:52Z</time>
      </trkpt>
      <trkpt lat="42.70211" lon="1.54819">
        <ele>2020</ele>
        <time>2014-08-15T08:46:06Z</time>
      </trkpt>
      <trkpt lat="42.70206" lon="1.54834">
        <ele>2019</ele>
        <time>2014-08-15T08:46:18Z</time>
      </trkpt>
      <trkpt lat="42.70206" lon="1.54837">
        <ele>2019</ele>
        <time>2014-08-15T08:46:23Z</time>
      </trkpt>
      <trkpt lat="42.70206" lon="1.54839">
        <ele>2018</ele>
        <time>2014-08-15T08:46:25Z</time>
      </trkpt>
      <trkpt lat="42.70209" lon="1.54848">
        <ele>2018</ele>
        <time>2014-08-15T08:46:40Z</time>
      </trkpt>
      <trkpt lat="42.70208" lon="1.5485">
        <ele>2018</ele>
        <time>2014-08-15T08:46:44Z</time>
      </trkpt>
      <trkpt lat="42.70198" lon="1.54862">
        <ele>2017</ele>
        <time>2014-08-15T08:46:58Z</time>
      </trkpt>
      <trkpt lat="42.70197" lon="1.54865">
        <ele>2017</ele>
        <time>2014-08-15T08:47:01Z</time>
      </trkpt>
      <trkpt lat="42.70198" lon="1.54868">
        <ele>2016</ele>
        <time>2014-08-15T08:47:04Z</time>
      </trkpt>
      <trkpt lat="42.70199" lon="1.54872">
        <ele>2016</ele>
        <time>2014-08-15T08:47:08Z</time>
      </trkpt>
      <trkpt lat="42.70199" lon="1.54876">
        <ele>2016</ele>
        <time>2014-08-15T08:47:11Z</time>
      </trkpt>
      <trkpt lat="42.7019" lon="1.54893">
        <ele>2015</ele>
        <time>2014-08-15T08:47:25Z</time>
      </trkpt>
      <trkpt lat="42.70192" lon="1.54905">
        <ele>2016</ele>
        <time>2014-08-15T08:47:38Z</time>
      </trkpt>
      <trkpt lat="42.70197" lon="1.54907">
        <ele>2014</ele>
        <time>2014-08-15T08:47:51Z</time>
      </trkpt>
      <trkpt lat="42.70204" lon="1.54909">
        <ele>2011</ele>
        <time>2014-08-15T08:48:04Z</time>
      </trkpt>
      <trkpt lat="42.70209" lon="1.54912">
        <ele>2010</ele>
        <time>2014-08-15T08:48:14Z</time>
      </trkpt>
      <trkpt lat="42.70219" lon="1.54917">
        <ele>2008</ele>
        <time>2014-08-15T08:48:28Z</time>
      </trkpt>
      <trkpt lat="42.70229" lon="1.54916">
        <ele>2006</ele>
        <time>2014-08-15T08:48:41Z</time>
      </trkpt>
      <trkpt lat="42.70238" lon="1.5492">
        <ele>2004</ele>
        <time>2014-08-15T08:48:55Z</time>
      </trkpt>
      <trkpt lat="42.70245" lon="1.54925">
        <ele>2002</ele>
        <time>2014-08-15T08:49:04Z</time>
      </trkpt>
      <trkpt lat="42.70257" lon="1.54932">
        <ele>2000</ele>
        <time>2014-08-15T08:49:21Z</time>
      </trkpt>
      <trkpt lat="42.70268" lon="1.54939">
        <ele>1998</ele>
        <time>2014-08-15T08:49:36Z</time>
      </trkpt>
      <trkpt lat="42.70272" lon="1.5494">
        <ele>1997</ele>
        <time>2014-08-15T08:49:44Z</time>
      </trkpt>
      <trkpt lat="42.70273" lon="1.54942">
        <ele>1997</ele>
        <time>2014-08-15T08:49:46Z</time>
      </trkpt>
      <trkpt lat="42.70284" lon="1.54945">
        <ele>1996</ele>
        <time>2014-08-15T08:49:59Z</time>
      </trkpt>
      <trkpt lat="42.70291" lon="1.54948">
        <ele>1995</ele>
        <time>2014-08-15T08:50:13Z</time>
      </trkpt>
      <trkpt lat="42.70301" lon="1.54952">
        <ele>1993</ele>
        <time>2014-08-15T08:50:26Z</time>
      </trkpt>
      <trkpt lat="42.70312" lon="1.54959">
        <ele>1993</ele>
        <time>2014-08-15T08:50:40Z</time>
      </trkpt>
      <trkpt lat="42.70314" lon="1.54958">
        <ele>1992</ele>
        <time>2014-08-15T08:50:43Z</time>
      </trkpt>
      <trkpt lat="42.70322" lon="1.54958">
        <ele>1993</ele>
        <time>2014-08-15T08:50:55Z</time>
      </trkpt>
      <trkpt lat="42.7033" lon="1.54954">
        <ele>1992</ele>
        <time>2014-08-15T08:51:10Z</time>
      </trkpt>
      <trkpt lat="42.70332" lon="1.54955">
        <ele>1992</ele>
        <time>2014-08-15T08:51:15Z</time>
      </trkpt>
      <trkpt lat="42.70341" lon="1.54963">
        <ele>1991</ele>
        <time>2014-08-15T08:51:29Z</time>
      </trkpt>
      <trkpt lat="42.70342" lon="1.54964">
        <ele>1991</ele>
        <time>2014-08-15T08:51:32Z</time>
      </trkpt>
      <trkpt lat="42.70348" lon="1.54967">
        <ele>1991</ele>
        <time>2014-08-15T08:51:40Z</time>
      </trkpt>
      <trkpt lat="42.70357" lon="1.54976">
        <ele>1991</ele>
        <time>2014-08-15T08:51:55Z</time>
      </trkpt>
      <trkpt lat="42.70363" lon="1.54984">
        <ele>1991</ele>
        <time>2014-08-15T08:52:06Z</time>
      </trkpt>
      <trkpt lat="42.70375" lon="1.54979">
        <ele>1990</ele>
        <time>2014-08-15T08:52:19Z</time>
      </trkpt>
      <trkpt lat="42.70377" lon="1.5498">
        <ele>1989</ele>
        <time>2014-08-15T08:52:30Z</time>
      </trkpt>
      <trkpt lat="42.70379" lon="1.54981">
        <ele>1989</ele>
        <time>2014-08-15T08:52:48Z</time>
      </trkpt>
      <trkpt lat="42.70384" lon="1.54978">
        <ele>1987</ele>
        <time>2014-08-15T08:52:59Z</time>
      </trkpt>
      <trkpt lat="42.70386" lon="1.54976">
        <ele>1987</ele>
        <time>2014-08-15T08:53:02Z</time>
      </trkpt>
      <trkpt lat="42.70388" lon="1.54976">
        <ele>1987</ele>
        <time>2014-08-15T08:53:05Z</time>
      </trkpt>
      <trkpt lat="42.70395" lon="1.5497">
        <ele>1988</ele>
        <time>2014-08-15T08:53:14Z</time>
      </trkpt>
      <trkpt lat="42.70398" lon="1.54965">
        <ele>1986</ele>
        <time>2014-08-15T08:53:20Z</time>
      </trkpt>
      <trkpt lat="42.70402" lon="1.54963">
        <ele>1985</ele>
        <time>2014-08-15T08:53:24Z</time>
      </trkpt>
      <trkpt lat="42.70407" lon="1.54961">
        <ele>1986</ele>
        <time>2014-08-15T08:53:30Z</time>
      </trkpt>
      <trkpt lat="42.7041" lon="1.5496">
        <ele>1986</ele>
        <time>2014-08-15T08:53:34Z</time>
      </trkpt>
      <trkpt lat="42.70412" lon="1.54959">
        <ele>1986</ele>
        <time>2014-08-15T08:53:37Z</time>
      </trkpt>
      <trkpt lat="42.70418" lon="1.54956">
        <ele>1986</ele>
        <time>2014-08-15T08:53:44Z</time>
      </trkpt>
      <trkpt lat="42.70429" lon="1.54949">
        <ele>1986</ele>
        <time>2014-08-15T08:53:57Z</time>
      </trkpt>
      <trkpt lat="42.7044" lon="1.54943">
        <ele>1987</ele>
        <time>2014-08-15T08:54:09Z</time>
      </trkpt>
      <trkpt lat="42.70449" lon="1.54939">
        <ele>1987</ele>
        <time>2014-08-15T08:54:20Z</time>
      </trkpt>
      <trkpt lat="42.70451" lon="1.54939">
        <ele>1986</ele>
        <time>2014-08-15T08:54:23Z</time>
      </trkpt>
      <trkpt lat="42.70461" lon="1.5494">
        <ele>1986</ele>
        <time>2014-08-15T08:54:36Z</time>
      </trkpt>
      <trkpt lat="42.70471" lon="1.54941">
        <ele>1988</ele>
        <time>2014-08-15T08:54:50Z</time>
      </trkpt>
      <trkpt lat="42.70474" lon="1.54941">
        <ele>1988</ele>
        <time>2014-08-15T08:54:55Z</time>
      </trkpt>
      <trkpt lat="42.70482" lon="1.54944">
        <ele>1990</ele>
        <time>2014-08-15T08:55:08Z</time>
      </trkpt>
      <trkpt lat="42.70483" lon="1.54943">
        <ele>1990</ele>
        <time>2014-08-15T08:55:21Z</time>
      </trkpt>
      <trkpt lat="42.70492" lon="1.54944">
        <ele>1989</ele>
        <time>2014-08-15T08:55:40Z</time>
      </trkpt>
      <trkpt lat="42.70494" lon="1.54943">
        <ele>1989</ele>
        <time>2014-08-15T08:55:43Z</time>
      </trkpt>
      <trkpt lat="42.70504" lon="1.54942">
        <ele>1988</ele>
        <time>2014-08-15T08:55:54Z</time>
      </trkpt>
      <trkpt lat="42.70514" lon="1.54954">
        <ele>1989</ele>
        <time>2014-08-15T08:56:08Z</time>
      </trkpt>
      <trkpt lat="42.70519" lon="1.5496">
        <ele>1990</ele>
        <time>2014-08-15T08:56:17Z</time>
      </trkpt>
      <trkpt lat="42.70525" lon="1.54961">
        <ele>1991</ele>
        <time>2014-08-15T08:56:23Z</time>
      </trkpt>
      <trkpt lat="42.70528" lon="1.54966">
        <ele>1991</ele>
        <time>2014-08-15T08:56:28Z</time>
      </trkpt>
      <trkpt lat="42.70528" lon="1.54969">
        <ele>1992</ele>
        <time>2014-08-15T08:56:41Z</time>
      </trkpt>
      <trkpt lat="42.70528" lon="1.54973">
        <ele>1992</ele>
        <time>2014-08-15T08:56:58Z</time>
      </trkpt>
      <trkpt lat="42.70524" lon="1.54976">
        <ele>1992</ele>
        <time>2014-08-15T08:57:15Z</time>
      </trkpt>
      <trkpt lat="42.70522" lon="1.54973">
        <ele>1992</ele>
        <time>2014-08-15T08:57:34Z</time>
      </trkpt>
      <trkpt lat="42.70525" lon="1.54975">
        <ele>1992</ele>
        <time>2014-08-15T08:58:06Z</time>
      </trkpt>
      <trkpt lat="42.70526" lon="1.54978">
        <ele>1992</ele>
        <time>2014-08-15T08:58:46Z</time>
      </trkpt>
      <trkpt lat="42.70524" lon="1.54981">
        <ele>1992</ele>
        <time>2014-08-15T08:59:14Z</time>
      </trkpt>
      <trkpt lat="42.70524" lon="1.54984">
        <ele>1993</ele>
        <time>2014-08-15T08:59:43Z</time>
      </trkpt>
      <trkpt lat="42.70522" lon="1.54982">
        <ele>1993</ele>
        <time>2014-08-15T09:00:00Z</time>
      </trkpt>
      <trkpt lat="42.70523" lon="1.54982">
        <ele>1993</ele>
        <time>2014-08-15T09:00:29Z</time>
      </trkpt>
      <trkpt lat="42.70525" lon="1.54979">
        <ele>1993</ele>
        <time>2014-08-15T09:00:52Z</time>
      </trkpt>
      <trkpt lat="42.70527" lon="1.5498">
        <ele>1994</ele>
        <time>2014-08-15T09:01:27Z</time>
      </trkpt>
      <trkpt lat="42.70529" lon="1.54983">
        <ele>1994</ele>
        <time>2014-08-15T09:01:58Z</time>
      </trkpt>
      <trkpt lat="42.70527" lon="1.54985">
        <ele>1994</ele>
        <time>2014-08-15T09:02:29Z</time>
      </trkpt>
      <trkpt lat="42.7053" lon="1.54974">
        <ele>1994</ele>
        <time>2014-08-15T09:03:01Z</time>
      </trkpt>
      <trkpt lat="42.70525" lon="1.54975">
        <ele>1994</ele>
        <time>2014-08-15T09:03:33Z</time>
      </trkpt>
      <trkpt lat="42.70528" lon="1.54974">
        <ele>1995</ele>
        <time>2014-08-15T09:04:05Z</time>
      </trkpt>
      <trkpt lat="42.7053" lon="1.54976">
        <ele>1995</ele>
        <time>2014-08-15T09:04:31Z</time>
      </trkpt>
      <trkpt lat="42.70525" lon="1.54976">
        <ele>1995</ele>
        <time>2014-08-15T09:04:58Z</time>
      </trkpt>
      <trkpt lat="42.70528" lon="1.54973">
        <ele>1995</ele>
        <time>2014-08-15T09:05:30Z</time>
      </trkpt>
      <trkpt lat="42.70529" lon="1.54978">
        <ele>1995</ele>
        <time>2014-08-15T09:06:05Z</time>
      </trkpt>
      <trkpt lat="42.70524" lon="1.54978">
        <ele>1996</ele>
        <time>2014-08-15T09:06:41Z</time>
      </trkpt>
      <trkpt lat="42.70528" lon="1.54975">
        <ele>1996</ele>
        <time>2014-08-15T09:06:57Z</time>
      </trkpt>
      <trkpt lat="42.70533" lon="1.54969">
        <ele>1995</ele>
        <time>2014-08-15T09:07:12Z</time>
      </trkpt>
      <trkpt lat="42.70542" lon="1.54976">
        <ele>1993</ele>
        <time>2014-08-15T09:07:26Z</time>
      </trkpt>
      <trkpt lat="42.70544" lon="1.54977">
        <ele>1992</ele>
        <time>2014-08-15T09:07:28Z</time>
      </trkpt>
      <trkpt lat="42.70553" lon="1.54982">
        <ele>1990</ele>
        <time>2014-08-15T09:07:42Z</time>
      </trkpt>
      <trkpt lat="42.70563" lon="1.54983">
        <ele>1989</ele>
        <time>2014-08-15T09:07:57Z</time>
      </trkpt>
      <trkpt lat="42.70573" lon="1.54987">
        <ele>1987</ele>
        <time>2014-08-15T09:08:10Z</time>
      </trkpt>
      <trkpt lat="42.70574" lon="1.54987">
        <ele>1987</ele>
        <time>2014-08-15T09:08:11Z</time>
      </trkpt>
      <trkpt lat="42.70582" lon="1.54996">
        <ele>1986</ele>
        <time>2014-08-15T09:08:25Z</time>
      </trkpt>
      <trkpt lat="42.70584" lon="1.54999">
        <ele>1985</ele>
        <time>2014-08-15T09:08:39Z</time>
      </trkpt>
      <trkpt lat="42.70587" lon="1.55005">
        <ele>1984</ele>
        <time>2014-08-15T09:08:50Z</time>
      </trkpt>
      <trkpt lat="42.70588" lon="1.55004">
        <ele>1984</ele>
        <time>2014-08-15T09:08:51Z</time>
      </trkpt>
      <trkpt lat="42.70601" lon="1.55009">
        <ele>1983</ele>
        <time>2014-08-15T09:09:04Z</time>
      </trkpt>
      <trkpt lat="42.70615" lon="1.55011">
        <ele>1985</ele>
        <time>2014-08-15T09:09:19Z</time>
      </trkpt>
      <trkpt lat="42.70615" lon="1.55012">
        <ele>1985</ele>
        <time>2014-08-15T09:09:20Z</time>
      </trkpt>
      <trkpt lat="42.70616" lon="1.55014">
        <ele>1984</ele>
        <time>2014-08-15T09:09:22Z</time>
      </trkpt>
      <trkpt lat="42.70624" lon="1.55018">
        <ele>1984</ele>
        <time>2014-08-15T09:09:32Z</time>
      </trkpt>
      <trkpt lat="42.70636" lon="1.55026">
        <ele>1983</ele>
        <time>2014-08-15T09:09:45Z</time>
      </trkpt>
      <trkpt lat="42.70647" lon="1.55028">
        <ele>1983</ele>
        <time>2014-08-15T09:09:56Z</time>
      </trkpt>
      <trkpt lat="42.70656" lon="1.55027">
        <ele>1982</ele>
        <time>2014-08-15T09:10:07Z</time>
      </trkpt>
      <trkpt lat="42.70662" lon="1.55027">
        <ele>1980</ele>
        <time>2014-08-15T09:10:12Z</time>
      </trkpt>
      <trkpt lat="42.70668" lon="1.5503">
        <ele>1979</ele>
        <time>2014-08-15T09:10:19Z</time>
      </trkpt>
      <trkpt lat="42.70677" lon="1.55033">
        <ele>1979</ele>
        <time>2014-08-15T09:10:30Z</time>
      </trkpt>
      <trkpt lat="42.70681" lon="1.55031">
        <ele>1979</ele>
        <time>2014-08-15T09:10:33Z</time>
      </trkpt>
      <trkpt lat="42.70688" lon="1.55028">
        <ele>1979</ele>
        <time>2014-08-15T09:10:41Z</time>
      </trkpt>
      <trkpt lat="42.70696" lon="1.55015">
        <ele>1979</ele>
        <time>2014-08-15T09:10:56Z</time>
      </trkpt>
      <trkpt lat="42.70699" lon="1.55006">
        <ele>1977</ele>
        <time>2014-08-15T09:11:09Z</time>
      </trkpt>
      <trkpt lat="42.70707" lon="1.55005">
        <ele>1974</ele>
        <time>2014-08-15T09:11:23Z</time>
      </trkpt>
      <trkpt lat="42.70709" lon="1.5501">
        <ele>1972</ele>
        <time>2014-08-15T09:11:32Z</time>
      </trkpt>
      <trkpt lat="42.70722" lon="1.55005">
        <ele>1970</ele>
        <time>2014-08-15T09:11:46Z</time>
      </trkpt>
      <trkpt lat="42.70724" lon="1.55002">
        <ele>1969</ele>
        <time>2014-08-15T09:11:53Z</time>
      </trkpt>
      <trkpt lat="42.70729" lon="1.55001">
        <ele>1968</ele>
        <time>2014-08-15T09:12:00Z</time>
      </trkpt>
      <trkpt lat="42.70736" lon="1.55003">
        <ele>1966</ele>
        <time>2014-08-15T09:12:15Z</time>
      </trkpt>
      <trkpt lat="42.70741" lon="1.55001">
        <ele>1963</ele>
        <time>2014-08-15T09:12:27Z</time>
      </trkpt>
      <trkpt lat="42.70747" lon="1.54997">
        <ele>1960</ele>
        <time>2014-08-15T09:12:40Z</time>
      </trkpt>
      <trkpt lat="42.70751" lon="1.54996">
        <ele>1959</ele>
        <time>2014-08-15T09:12:52Z</time>
      </trkpt>
      <trkpt lat="42.70755" lon="1.54998">
        <ele>1957</ele>
        <time>2014-08-15T09:13:05Z</time>
      </trkpt>
      <trkpt lat="42.70757" lon="1.54996">
        <ele>1955</ele>
        <time>2014-08-15T09:13:20Z</time>
      </trkpt>
      <trkpt lat="42.70761" lon="1.55">
        <ele>1953</ele>
        <time>2014-08-15T09:13:31Z</time>
      </trkpt>
      <trkpt lat="42.70765" lon="1.54999">
        <ele>1951</ele>
        <time>2014-08-15T09:13:44Z</time>
      </trkpt>
      <trkpt lat="42.70767" lon="1.54996">
        <ele>1949</ele>
        <time>2014-08-15T09:13:59Z</time>
      </trkpt>
      <trkpt lat="42.70771" lon="1.55001">
        <ele>1946</ele>
        <time>2014-08-15T09:14:12Z</time>
      </trkpt>
      <trkpt lat="42.70773" lon="1.54994">
        <ele>1945</ele>
        <time>2014-08-15T09:14:26Z</time>
      </trkpt>
      <trkpt lat="42.70775" lon="1.54992">
        <ele>1943</ele>
        <time>2014-08-15T09:14:39Z</time>
      </trkpt>
      <trkpt lat="42.70778" lon="1.54995">
        <ele>1941</ele>
        <time>2014-08-15T09:14:51Z</time>
      </trkpt>
      <trkpt lat="42.70783" lon="1.54991">
        <ele>1938</ele>
        <time>2014-08-15T09:15:06Z</time>
      </trkpt>
      <trkpt lat="42.70783" lon="1.54998">
        <ele>1936</ele>
        <time>2014-08-15T09:15:18Z</time>
      </trkpt>
      <trkpt lat="42.70787" lon="1.54999">
        <ele>1933</ele>
        <time>2014-08-15T09:15:31Z</time>
      </trkpt>
      <trkpt lat="42.70793" lon="1.54996">
        <ele>1931</ele>
        <time>2014-08-15T09:15:44Z</time>
      </trkpt>
      <trkpt lat="42.70797" lon="1.54993">
        <ele>1929</ele>
        <time>2014-08-15T09:15:59Z</time>
      </trkpt>
      <trkpt lat="42.70802" lon="1.54993">
        <ele>1928</ele>
        <time>2014-08-15T09:16:15Z</time>
      </trkpt>
      <trkpt lat="42.70806" lon="1.54989">
        <ele>1925</ele>
        <time>2014-08-15T09:16:27Z</time>
      </trkpt>
      <trkpt lat="42.70813" lon="1.54991">
        <ele>1923</ele>
        <time>2014-08-15T09:16:42Z</time>
      </trkpt>
      <trkpt lat="42.70818" lon="1.54989">
        <ele>1920</ele>
        <time>2014-08-15T09:16:55Z</time>
      </trkpt>
      <trkpt lat="42.70824" lon="1.54989">
        <ele>1918</ele>
        <time>2014-08-15T09:17:05Z</time>
      </trkpt>
      <trkpt lat="42.70831" lon="1.54985">
        <ele>1917</ele>
        <time>2014-08-15T09:17:16Z</time>
      </trkpt>
      <trkpt lat="42.70838" lon="1.54983">
        <ele>1914</ele>
        <time>2014-08-15T09:17:26Z</time>
      </trkpt>
      <trkpt lat="42.70841" lon="1.54983">
        <ele>1913</ele>
        <time>2014-08-15T09:17:31Z</time>
      </trkpt>
      <trkpt lat="42.70848" lon="1.54975">
        <ele>1911</ele>
        <time>2014-08-15T09:17:43Z</time>
      </trkpt>
      <trkpt lat="42.70851" lon="1.54971">
        <ele>1910</ele>
        <time>2014-08-15T09:17:49Z</time>
      </trkpt>
      <trkpt lat="42.70857" lon="1.54959">
        <ele>1908</ele>
        <time>2014-08-15T09:18:04Z</time>
      </trkpt>
      <trkpt lat="42.70865" lon="1.54954">
        <ele>1905</ele>
        <time>2014-08-15T09:18:19Z</time>
      </trkpt>
      <trkpt lat="42.70867" lon="1.54946">
        <ele>1903</ele>
        <time>2014-08-15T09:18:32Z</time>
      </trkpt>
      <trkpt lat="42.70867" lon="1.54936">
        <ele>1901</ele>
        <time>2014-08-15T09:18:45Z</time>
      </trkpt>
      <trkpt lat="42.70863" lon="1.54931">
        <ele>1899</ele>
        <time>2014-08-15T09:18:58Z</time>
      </trkpt>
      <trkpt lat="42.70859" lon="1.54925">
        <ele>1897</ele>
        <time>2014-08-15T09:19:12Z</time>
      </trkpt>
      <trkpt lat="42.70862" lon="1.54921">
        <ele>1893</ele>
        <time>2014-08-15T09:19:25Z</time>
      </trkpt>
      <trkpt lat="42.70867" lon="1.54915">
        <ele>1891</ele>
        <time>2014-08-15T09:19:37Z</time>
      </trkpt>
      <trkpt lat="42.70874" lon="1.54912">
        <ele>1888</ele>
        <time>2014-08-15T09:19:50Z</time>
      </trkpt>
      <trkpt lat="42.70879" lon="1.54912">
        <ele>1887</ele>
        <time>2014-08-15T09:19:57Z</time>
      </trkpt>
      <trkpt lat="42.70888" lon="1.54911">
        <ele>1884</ele>
        <time>2014-08-15T09:20:12Z</time>
      </trkpt>
      <trkpt lat="42.70893" lon="1.54907">
        <ele>1881</ele>
        <time>2014-08-15T09:20:24Z</time>
      </trkpt>
      <trkpt lat="42.709" lon="1.54907">
        <ele>1880</ele>
        <time>2014-08-15T09:20:36Z</time>
      </trkpt>
      <trkpt lat="42.70904" lon="1.54912">
        <ele>1879</ele>
        <time>2014-08-15T09:20:47Z</time>
      </trkpt>
      <trkpt lat="42.70907" lon="1.54909">
        <ele>1876</ele>
        <time>2014-08-15T09:20:58Z</time>
      </trkpt>
      <trkpt lat="42.70908" lon="1.54905">
        <ele>1876</ele>
        <time>2014-08-15T09:21:01Z</time>
      </trkpt>
      <trkpt lat="42.70918" lon="1.54901">
        <ele>1874</ele>
        <time>2014-08-15T09:21:15Z</time>
      </trkpt>
      <trkpt lat="42.70925" lon="1.54896">
        <ele>1871</ele>
        <time>2014-08-15T09:21:28Z</time>
      </trkpt>
      <trkpt lat="42.7093" lon="1.549">
        <ele>1868</ele>
        <time>2014-08-15T09:21:42Z</time>
      </trkpt>
      <trkpt lat="42.70932" lon="1.54906">
        <ele>1866</ele>
        <time>2014-08-15T09:21:55Z</time>
      </trkpt>
      <trkpt lat="42.70935" lon="1.54908">
        <ele>1864</ele>
        <time>2014-08-15T09:22:08Z</time>
      </trkpt>
      <trkpt lat="42.7094" lon="1.54907">
        <ele>1861</ele>
        <time>2014-08-15T09:22:21Z</time>
      </trkpt>
      <trkpt lat="42.70946" lon="1.54904">
        <ele>1858</ele>
        <time>2014-08-15T09:22:33Z</time>
      </trkpt>
      <trkpt lat="42.70949" lon="1.54899">
        <ele>1857</ele>
        <time>2014-08-15T09:22:44Z</time>
      </trkpt>
      <trkpt lat="42.70953" lon="1.549">
        <ele>1855</ele>
        <time>2014-08-15T09:22:57Z</time>
      </trkpt>
      <trkpt lat="42.70957" lon="1.549">
        <ele>1853</ele>
        <time>2014-08-15T09:23:12Z</time>
      </trkpt>
      <trkpt lat="42.7096" lon="1.54901">
        <ele>1851</ele>
        <time>2014-08-15T09:23:24Z</time>
      </trkpt>
      <trkpt lat="42.70961" lon="1.54896">
        <ele>1850</ele>
        <time>2014-08-15T09:23:36Z</time>
      </trkpt>
      <trkpt lat="42.70966" lon="1.54903">
        <ele>1847</ele>
        <time>2014-08-15T09:23:49Z</time>
      </trkpt>
      <trkpt lat="42.70969" lon="1.54904">
        <ele>1845</ele>
        <time>2014-08-15T09:24:03Z</time>
      </trkpt>
      <trkpt lat="42.7097" lon="1.54904">
        <ele>1843</ele>
        <time>2014-08-15T09:24:06Z</time>
      </trkpt>
      <trkpt lat="42.70972" lon="1.54896">
        <ele>1842</ele>
        <time>2014-08-15T09:24:18Z</time>
      </trkpt>
      <trkpt lat="42.70974" lon="1.54892">
        <ele>1840</ele>
        <time>2014-08-15T09:24:34Z</time>
      </trkpt>
      <trkpt lat="42.70973" lon="1.54886">
        <ele>1838</ele>
        <time>2014-08-15T09:24:51Z</time>
      </trkpt>
      <trkpt lat="42.70972" lon="1.54888">
        <ele>1838</ele>
        <time>2014-08-15T09:25:10Z</time>
      </trkpt>
      <trkpt lat="42.70971" lon="1.54882">
        <ele>1837</ele>
        <time>2014-08-15T09:25:32Z</time>
      </trkpt>
      <trkpt lat="42.70976" lon="1.54878">
        <ele>1834</ele>
        <time>2014-08-15T09:25:48Z</time>
      </trkpt>
      <trkpt lat="42.70983" lon="1.54881">
        <ele>1830</ele>
        <time>2014-08-15T09:26:00Z</time>
      </trkpt>
      <trkpt lat="42.70984" lon="1.54881">
        <ele>1830</ele>
        <time>2014-08-15T09:26:02Z</time>
      </trkpt>
      <trkpt lat="42.70985" lon="1.54876">
        <ele>1830</ele>
        <time>2014-08-15T09:26:07Z</time>
      </trkpt>
      <trkpt lat="42.70986" lon="1.54874">
        <ele>1829</ele>
        <time>2014-08-15T09:26:09Z</time>
      </trkpt>
      <trkpt lat="42.70987" lon="1.54861">
        <ele>1827</ele>
        <time>2014-08-15T09:26:22Z</time>
      </trkpt>
      <trkpt lat="42.70992" lon="1.54852">
        <ele>1825</ele>
        <time>2014-08-15T09:26:35Z</time>
      </trkpt>
      <trkpt lat="42.70992" lon="1.54848">
        <ele>1821</ele>
        <time>2014-08-15T09:26:45Z</time>
      </trkpt>
      <trkpt lat="42.70986" lon="1.54837">
        <ele>1819</ele>
        <time>2014-08-15T09:26:59Z</time>
      </trkpt>
      <trkpt lat="42.70983" lon="1.54834">
        <ele>1817</ele>
        <time>2014-08-15T09:27:10Z</time>
      </trkpt>
      <trkpt lat="42.70984" lon="1.54828">
        <ele>1816</ele>
        <time>2014-08-15T09:27:22Z</time>
      </trkpt>
      <trkpt lat="42.70985" lon="1.54824">
        <ele>1814</ele>
        <time>2014-08-15T09:27:34Z</time>
      </trkpt>
      <trkpt lat="42.70983" lon="1.54818">
        <ele>1812</ele>
        <time>2014-08-15T09:27:47Z</time>
      </trkpt>
      <trkpt lat="42.7098" lon="1.5481">
        <ele>1809</ele>
        <time>2014-08-15T09:28:00Z</time>
      </trkpt>
      <trkpt lat="42.70978" lon="1.54803">
        <ele>1806</ele>
        <time>2014-08-15T09:28:14Z</time>
      </trkpt>
      <trkpt lat="42.70974" lon="1.54798">
        <ele>1804</ele>
        <time>2014-08-15T09:28:25Z</time>
      </trkpt>
      <trkpt lat="42.70973" lon="1.54794">
        <ele>1803</ele>
        <time>2014-08-15T09:28:36Z</time>
      </trkpt>
      <trkpt lat="42.70971" lon="1.54786">
        <ele>1799</ele>
        <time>2014-08-15T09:28:48Z</time>
      </trkpt>
      <trkpt lat="42.70965" lon="1.54782">
        <ele>1797</ele>
        <time>2014-08-15T09:29:02Z</time>
      </trkpt>
      <trkpt lat="42.70962" lon="1.54778">
        <ele>1795</ele>
        <time>2014-08-15T09:29:07Z</time>
      </trkpt>
      <trkpt lat="42.70956" lon="1.54776">
        <ele>1793</ele>
        <time>2014-08-15T09:29:21Z</time>
      </trkpt>
      <trkpt lat="42.70951" lon="1.54768">
        <ele>1790</ele>
        <time>2014-08-15T09:29:34Z</time>
      </trkpt>
      <trkpt lat="42.70942" lon="1.54765">
        <ele>1788</ele>
        <time>2014-08-15T09:29:48Z</time>
      </trkpt>
      <trkpt lat="42.70938" lon="1.54764">
        <ele>1786</ele>
        <time>2014-08-15T09:30:02Z</time>
      </trkpt>
      <trkpt lat="42.70937" lon="1.54764">
        <ele>1785</ele>
        <time>2014-08-15T09:30:15Z</time>
      </trkpt>
      <trkpt lat="42.70935" lon="1.54755">
        <ele>1783</ele>
        <time>2014-08-15T09:30:29Z</time>
      </trkpt>
      <trkpt lat="42.70938" lon="1.54746">
        <ele>1780</ele>
        <time>2014-08-15T09:30:45Z</time>
      </trkpt>
      <trkpt lat="42.70934" lon="1.5474">
        <ele>1778</ele>
        <time>2014-08-15T09:30:59Z</time>
      </trkpt>
      <trkpt lat="42.7093" lon="1.54734">
        <ele>1776</ele>
        <time>2014-08-15T09:31:11Z</time>
      </trkpt>
      <trkpt lat="42.70927" lon="1.5473">
        <ele>1773</ele>
        <time>2014-08-15T09:31:23Z</time>
      </trkpt>
      <trkpt lat="42.70921" lon="1.54726">
        <ele>1771</ele>
        <time>2014-08-15T09:31:37Z</time>
      </trkpt>
      <trkpt lat="42.70914" lon="1.54727">
        <ele>1770</ele>
        <time>2014-08-15T09:31:50Z</time>
      </trkpt>
      <trkpt lat="42.70912" lon="1.54722">
        <ele>1769</ele>
        <time>2014-08-15T09:32:04Z</time>
      </trkpt>
      <trkpt lat="42.70911" lon="1.54715">
        <ele>1767</ele>
        <time>2014-08-15T09:32:13Z</time>
      </trkpt>
      <trkpt lat="42.70908" lon="1.54711">
        <ele>1764</ele>
        <time>2014-08-15T09:32:24Z</time>
      </trkpt>
      <trkpt lat="42.70902" lon="1.54705">
        <ele>1761</ele>
        <time>2014-08-15T09:32:35Z</time>
      </trkpt>
      <trkpt lat="42.70898" lon="1.54693">
        <ele>1759</ele>
        <time>2014-08-15T09:32:48Z</time>
      </trkpt>
      <trkpt lat="42.709" lon="1.5469">
        <ele>1760</ele>
        <time>2014-08-15T09:32:50Z</time>
      </trkpt>
      <trkpt lat="42.70902" lon="1.54685">
        <ele>1759</ele>
        <time>2014-08-15T09:32:53Z</time>
      </trkpt>
      <trkpt lat="42.70898" lon="1.54676">
        <ele>1758</ele>
        <time>2014-08-15T09:33:02Z</time>
      </trkpt>
      <trkpt lat="42.70896" lon="1.54669">
        <ele>1758</ele>
        <time>2014-08-15T09:33:08Z</time>
      </trkpt>
      <trkpt lat="42.70895" lon="1.54663">
        <ele>1758</ele>
        <time>2014-08-15T09:33:12Z</time>
      </trkpt>
      <trkpt lat="42.70897" lon="1.54652">
        <ele>1760</ele>
        <time>2014-08-15T09:33:26Z</time>
      </trkpt>
      <trkpt lat="42.70897" lon="1.54642">
        <ele>1759</ele>
        <time>2014-08-15T09:33:37Z</time>
      </trkpt>
      <trkpt lat="42.70898" lon="1.54631">
        <ele>1757</ele>
        <time>2014-08-15T09:33:49Z</time>
      </trkpt>
      <trkpt lat="42.70891" lon="1.54623">
        <ele>1756</ele>
        <time>2014-08-15T09:34:02Z</time>
      </trkpt>
      <trkpt lat="42.70884" lon="1.54622">
        <ele>1755</ele>
        <time>2014-08-15T09:34:15Z</time>
      </trkpt>
      <trkpt lat="42.70882" lon="1.54623">
        <ele>1755</ele>
        <time>2014-08-15T09:34:26Z</time>
      </trkpt>
      <trkpt lat="42.70888" lon="1.54619">
        <ele>1753</ele>
        <time>2014-08-15T09:34:38Z</time>
      </trkpt>
      <trkpt lat="42.7089" lon="1.54613">
        <ele>1752</ele>
        <time>2014-08-15T09:34:53Z</time>
      </trkpt>
      <trkpt lat="42.70891" lon="1.54614">
        <ele>1751</ele>
        <time>2014-08-15T09:35:05Z</time>
      </trkpt>
      <trkpt lat="42.70892" lon="1.54619">
        <ele>1749</ele>
        <time>2014-08-15T09:35:20Z</time>
      </trkpt>
      <trkpt lat="42.7089" lon="1.54619">
        <ele>1748</ele>
        <time>2014-08-15T09:35:29Z</time>
      </trkpt>
      <trkpt lat="42.70887" lon="1.54613">
        <ele>1748</ele>
        <time>2014-08-15T09:35:40Z</time>
      </trkpt>
      <trkpt lat="42.70891" lon="1.54604">
        <ele>1746</ele>
        <time>2014-08-15T09:35:51Z</time>
      </trkpt>
      <trkpt lat="42.70899" lon="1.54604">
        <ele>1744</ele>
        <time>2014-08-15T09:36:04Z</time>
      </trkpt>
      <trkpt lat="42.70907" lon="1.54605">
        <ele>1743</ele>
        <time>2014-08-15T09:36:16Z</time>
      </trkpt>
      <trkpt lat="42.7091" lon="1.54604">
        <ele>1743</ele>
        <time>2014-08-15T09:36:22Z</time>
      </trkpt>
      <trkpt lat="42.70913" lon="1.54602">
        <ele>1743</ele>
        <time>2014-08-15T09:36:26Z</time>
      </trkpt>
      <trkpt lat="42.70917" lon="1.54603">
        <ele>1743</ele>
        <time>2014-08-15T09:36:40Z</time>
      </trkpt>
      <trkpt lat="42.70922" lon="1.54607">
        <ele>1743</ele>
        <time>2014-08-15T09:36:50Z</time>
      </trkpt>
      <trkpt lat="42.70924" lon="1.54609">
        <ele>1744</ele>
        <time>2014-08-15T09:36:53Z</time>
      </trkpt>
      <trkpt lat="42.70935" lon="1.54619">
        <ele>1745</ele>
        <time>2014-08-15T09:37:07Z</time>
      </trkpt>
      <trkpt lat="42.70939" lon="1.54627">
        <ele>1744</ele>
        <time>2014-08-15T09:37:19Z</time>
      </trkpt>
      <trkpt lat="42.70945" lon="1.54636">
        <ele>1742</ele>
        <time>2014-08-15T09:37:31Z</time>
      </trkpt>
      <trkpt lat="42.70949" lon="1.54641">
        <ele>1740</ele>
        <time>2014-08-15T09:37:38Z</time>
      </trkpt>
      <trkpt lat="42.70957" lon="1.54651">
        <ele>1740</ele>
        <time>2014-08-15T09:37:52Z</time>
      </trkpt>
      <trkpt lat="42.70956" lon="1.54649">
        <ele>1739</ele>
        <time>2014-08-15T09:38:05Z</time>
      </trkpt>
      <trkpt lat="42.70957" lon="1.54648">
        <ele>1740</ele>
        <time>2014-08-15T09:38:28Z</time>
      </trkpt>
      <trkpt lat="42.70954" lon="1.54648">
        <ele>1740</ele>
        <time>2014-08-15T09:38:53Z</time>
      </trkpt>
      <trkpt lat="42.70954" lon="1.54648">
        <ele>1740</ele>
        <time>2014-08-15T09:39:15Z</time>
      </trkpt>
      <trkpt lat="42.70958" lon="1.54652">
        <ele>1740</ele>
        <time>2014-08-15T09:39:31Z</time>
      </trkpt>
      <trkpt lat="42.70965" lon="1.54657">
        <ele>1740</ele>
        <time>2014-08-15T09:39:41Z</time>
      </trkpt>
      <trkpt lat="42.70973" lon="1.54663">
        <ele>1741</ele>
        <time>2014-08-15T09:39:53Z</time>
      </trkpt>
      <trkpt lat="42.70977" lon="1.54666">
        <ele>1741</ele>
        <time>2014-08-15T09:40:01Z</time>
      </trkpt>
      <trkpt lat="42.70986" lon="1.54672">
        <ele>1741</ele>
        <time>2014-08-15T09:40:14Z</time>
      </trkpt>
      <trkpt lat="42.70991" lon="1.54681">
        <ele>1739</ele>
        <time>2014-08-15T09:40:26Z</time>
      </trkpt>
      <trkpt lat="42.70998" lon="1.54687">
        <ele>1739</ele>
        <time>2014-08-15T09:40:39Z</time>
      </trkpt>
      <trkpt lat="42.71002" lon="1.54693">
        <ele>1738</ele>
        <time>2014-08-15T09:40:50Z</time>
      </trkpt>
      <trkpt lat="42.71009" lon="1.54701">
        <ele>1739</ele>
        <time>2014-08-15T09:41:03Z</time>
      </trkpt>
      <trkpt lat="42.71014" lon="1.54703">
        <ele>1741</ele>
        <time>2014-08-15T09:41:13Z</time>
      </trkpt>
      <trkpt lat="42.71023" lon="1.54706">
        <ele>1743</ele>
        <time>2014-08-15T09:41:25Z</time>
      </trkpt>
      <trkpt lat="42.71025" lon="1.54706">
        <ele>1744</ele>
        <time>2014-08-15T09:41:36Z</time>
      </trkpt>
      <trkpt lat="42.71027" lon="1.5471">
        <ele>1743</ele>
        <time>2014-08-15T09:41:47Z</time>
      </trkpt>
      <trkpt lat="42.71037" lon="1.54712">
        <ele>1742</ele>
        <time>2014-08-15T09:42:00Z</time>
      </trkpt>
      <trkpt lat="42.71034" lon="1.54709">
        <ele>1742</ele>
        <time>2014-08-15T09:42:19Z</time>
      </trkpt>
      <trkpt lat="42.71037" lon="1.54706">
        <ele>1742</ele>
        <time>2014-08-15T09:42:42Z</time>
      </trkpt>
      <trkpt lat="42.71042" lon="1.54715">
        <ele>1740</ele>
        <time>2014-08-15T09:43:01Z</time>
      </trkpt>
      <trkpt lat="42.71045" lon="1.54721">
        <ele>1739</ele>
        <time>2014-08-15T09:43:12Z</time>
      </trkpt>
      <trkpt lat="42.71044" lon="1.54723">
        <ele>1739</ele>
        <time>2014-08-15T09:43:27Z</time>
      </trkpt>
      <trkpt lat="42.71047" lon="1.54728">
        <ele>1738</ele>
        <time>2014-08-15T09:43:51Z</time>
      </trkpt>
      <trkpt lat="42.71045" lon="1.54729">
        <ele>1738</ele>
        <time>2014-08-15T09:44:10Z</time>
      </trkpt>
      <trkpt lat="42.71047" lon="1.54732">
        <ele>1738</ele>
        <time>2014-08-15T09:44:23Z</time>
      </trkpt>
      <trkpt lat="42.71043" lon="1.54733">
        <ele>1738</ele>
        <time>2014-08-15T09:44:45Z</time>
      </trkpt>
      <trkpt lat="42.71048" lon="1.54736">
        <ele>1737</ele>
        <time>2014-08-15T09:44:59Z</time>
      </trkpt>
      <trkpt lat="42.71047" lon="1.54728">
        <ele>1737</ele>
        <time>2014-08-15T09:45:14Z</time>
      </trkpt>
      <trkpt lat="42.71048" lon="1.54728">
        <ele>1738</ele>
        <time>2014-08-15T09:45:30Z</time>
      </trkpt>
      <trkpt lat="42.71053" lon="1.54728">
        <ele>1739</ele>
        <time>2014-08-15T09:45:42Z</time>
      </trkpt>
      <trkpt lat="42.71061" lon="1.54727">
        <ele>1741</ele>
        <time>2014-08-15T09:45:56Z</time>
      </trkpt>
      <trkpt lat="42.71069" lon="1.54731">
        <ele>1741</ele>
        <time>2014-08-15T09:46:11Z</time>
      </trkpt>
      <trkpt lat="42.71077" lon="1.54734">
        <ele>1741</ele>
        <time>2014-08-15T09:46:23Z</time>
      </trkpt>
      <trkpt lat="42.7108" lon="1.5474">
        <ele>1740</ele>
        <time>2014-08-15T09:46:36Z</time>
      </trkpt>
      <trkpt lat="42.71085" lon="1.54746">
        <ele>1738</ele>
        <time>2014-08-15T09:46:48Z</time>
      </trkpt>
      <trkpt lat="42.7109" lon="1.5475">
        <ele>1736</ele>
        <time>2014-08-15T09:47:01Z</time>
      </trkpt>
      <trkpt lat="42.71095" lon="1.54753">
        <ele>1734</ele>
        <time>2014-08-15T09:47:10Z</time>
      </trkpt>
      <trkpt lat="42.71098" lon="1.54759">
        <ele>1732</ele>
        <time>2014-08-15T09:47:22Z</time>
      </trkpt>
      <trkpt lat="42.71099" lon="1.54762">
        <ele>1730</ele>
        <time>2014-08-15T09:47:32Z</time>
      </trkpt>
      <trkpt lat="42.71101" lon="1.54769">
        <ele>1728</ele>
        <time>2014-08-15T09:47:45Z</time>
      </trkpt>
      <trkpt lat="42.71101" lon="1.54777">
        <ele>1726</ele>
        <time>2014-08-15T09:47:58Z</time>
      </trkpt>
      <trkpt lat="42.71096" lon="1.5478">
        <ele>1724</ele>
        <time>2014-08-15T09:48:09Z</time>
      </trkpt>
      <trkpt lat="42.71096" lon="1.54784">
        <ele>1722</ele>
        <time>2014-08-15T09:48:21Z</time>
      </trkpt>
      <trkpt lat="42.71099" lon="1.54787">
        <ele>1720</ele>
        <time>2014-08-15T09:48:32Z</time>
      </trkpt>
      <trkpt lat="42.71093" lon="1.54793">
        <ele>1717</ele>
        <time>2014-08-15T09:48:46Z</time>
      </trkpt>
      <trkpt lat="42.71097" lon="1.54798">
        <ele>1716</ele>
        <time>2014-08-15T09:48:57Z</time>
      </trkpt>
      <trkpt lat="42.71099" lon="1.548">
        <ele>1714</ele>
        <time>2014-08-15T09:49:11Z</time>
      </trkpt>
      <trkpt lat="42.71103" lon="1.548">
        <ele>1713</ele>
        <time>2014-08-15T09:49:34Z</time>
      </trkpt>
      <trkpt lat="42.71112" lon="1.54812">
        <ele>1711</ele>
        <time>2014-08-15T09:49:51Z</time>
      </trkpt>
      <trkpt lat="42.71113" lon="1.54819">
        <ele>1708</ele>
        <time>2014-08-15T09:49:59Z</time>
      </trkpt>
      <trkpt lat="42.71111" lon="1.5483">
        <ele>1705</ele>
        <time>2014-08-15T09:50:11Z</time>
      </trkpt>
      <trkpt lat="42.71117" lon="1.54837">
        <ele>1704</ele>
        <time>2014-08-15T09:50:24Z</time>
      </trkpt>
      <trkpt lat="42.71122" lon="1.54842">
        <ele>1701</ele>
        <time>2014-08-15T09:50:35Z</time>
      </trkpt>
      <trkpt lat="42.71127" lon="1.54843">
        <ele>1699</ele>
        <time>2014-08-15T09:50:45Z</time>
      </trkpt>
      <trkpt lat="42.7113" lon="1.54855">
        <ele>1697</ele>
        <time>2014-08-15T09:50:58Z</time>
      </trkpt>
      <trkpt lat="42.71135" lon="1.5486">
        <ele>1696</ele>
        <time>2014-08-15T09:51:06Z</time>
      </trkpt>
      <trkpt lat="42.71138" lon="1.54869">
        <ele>1695</ele>
        <time>2014-08-15T09:51:18Z</time>
      </trkpt>
      <trkpt lat="42.71141" lon="1.54877">
        <ele>1693</ele>
        <time>2014-08-15T09:51:32Z</time>
      </trkpt>
      <trkpt lat="42.71145" lon="1.54882">
        <ele>1690</ele>
        <time>2014-08-15T09:51:43Z</time>
      </trkpt>
      <trkpt lat="42.71147" lon="1.54888">
        <ele>1688</ele>
        <time>2014-08-15T09:51:55Z</time>
      </trkpt>
      <trkpt lat="42.7115" lon="1.54893">
        <ele>1686</ele>
        <time>2014-08-15T09:52:06Z</time>
      </trkpt>
      <trkpt lat="42.71155" lon="1.54897">
        <ele>1685</ele>
        <time>2014-08-15T09:52:18Z</time>
      </trkpt>
      <trkpt lat="42.71158" lon="1.54903">
        <ele>1683</ele>
        <time>2014-08-15T09:52:30Z</time>
      </trkpt>
      <trkpt lat="42.71161" lon="1.54914">
        <ele>1681</ele>
        <time>2014-08-15T09:52:42Z</time>
      </trkpt>
      <trkpt lat="42.71162" lon="1.54917">
        <ele>1681</ele>
        <time>2014-08-15T09:52:45Z</time>
      </trkpt>
      <trkpt lat="42.71165" lon="1.54927">
        <ele>1679</ele>
        <time>2014-08-15T09:52:57Z</time>
      </trkpt>
      <trkpt lat="42.71169" lon="1.54934">
        <ele>1676</ele>
        <time>2014-08-15T09:53:11Z</time>
      </trkpt>
      <trkpt lat="42.71172" lon="1.54936">
        <ele>1674</ele>
        <time>2014-08-15T09:53:23Z</time>
      </trkpt>
      <trkpt lat="42.71176" lon="1.54944">
        <ele>1673</ele>
        <time>2014-08-15T09:53:40Z</time>
      </trkpt>
      <trkpt lat="42.71177" lon="1.54947">
        <ele>1671</ele>
        <time>2014-08-15T09:53:43Z</time>
      </trkpt>
      <trkpt lat="42.71182" lon="1.54956">
        <ele>1669</ele>
        <time>2014-08-15T09:53:59Z</time>
      </trkpt>
      <trkpt lat="42.71186" lon="1.54959">
        <ele>1667</ele>
        <time>2014-08-15T09:54:03Z</time>
      </trkpt>
      <trkpt lat="42.71194" lon="1.5497">
        <ele>1665</ele>
        <time>2014-08-15T09:54:18Z</time>
      </trkpt>
      <trkpt lat="42.71197" lon="1.54976">
        <ele>1662</ele>
        <time>2014-08-15T09:54:29Z</time>
      </trkpt>
      <trkpt lat="42.71198" lon="1.54978">
        <ele>1661</ele>
        <time>2014-08-15T09:54:34Z</time>
      </trkpt>
      <trkpt lat="42.71202" lon="1.54983">
        <ele>1660</ele>
        <time>2014-08-15T09:54:45Z</time>
      </trkpt>
      <trkpt lat="42.71205" lon="1.54984">
        <ele>1659</ele>
        <time>2014-08-15T09:54:58Z</time>
      </trkpt>
      <trkpt lat="42.71206" lon="1.54984">
        <ele>1658</ele>
        <time>2014-08-15T09:55:23Z</time>
      </trkpt>
      <trkpt lat="42.71205" lon="1.54993">
        <ele>1658</ele>
        <time>2014-08-15T09:55:38Z</time>
      </trkpt>
      <trkpt lat="42.71206" lon="1.54996">
        <ele>1658</ele>
        <time>2014-08-15T09:55:42Z</time>
      </trkpt>
      <trkpt lat="42.71211" lon="1.55006">
        <ele>1656</ele>
        <time>2014-08-15T09:55:55Z</time>
      </trkpt>
      <trkpt lat="42.71215" lon="1.55012">
        <ele>1655</ele>
        <time>2014-08-15T09:56:08Z</time>
      </trkpt>
      <trkpt lat="42.71216" lon="1.55013">
        <ele>1654</ele>
        <time>2014-08-15T09:56:12Z</time>
      </trkpt>
      <trkpt lat="42.71214" lon="1.55015">
        <ele>1654</ele>
        <time>2014-08-15T09:56:28Z</time>
      </trkpt>
      <trkpt lat="42.71218" lon="1.55021">
        <ele>1654</ele>
        <time>2014-08-15T09:56:47Z</time>
      </trkpt>
      <trkpt lat="42.71221" lon="1.55024">
        <ele>1652</ele>
        <time>2014-08-15T09:56:58Z</time>
      </trkpt>
      <trkpt lat="42.71217" lon="1.55024">
        <ele>1649</ele>
        <time>2014-08-15T09:57:09Z</time>
      </trkpt>
      <trkpt lat="42.71216" lon="1.5503">
        <ele>1647</ele>
        <time>2014-08-15T09:57:21Z</time>
      </trkpt>
      <trkpt lat="42.7122" lon="1.55036">
        <ele>1643</ele>
        <time>2014-08-15T09:57:33Z</time>
      </trkpt>
      <trkpt lat="42.71219" lon="1.5504">
        <ele>1643</ele>
        <time>2014-08-15T09:57:40Z</time>
      </trkpt>
      <trkpt lat="42.71215" lon="1.55041">
        <ele>1642</ele>
        <time>2014-08-15T09:57:45Z</time>
      </trkpt>
      <trkpt lat="42.71208" lon="1.55042">
        <ele>1640</ele>
        <time>2014-08-15T09:57:58Z</time>
      </trkpt>
      <trkpt lat="42.71217" lon="1.55049">
        <ele>1637</ele>
        <time>2014-08-15T09:58:13Z</time>
      </trkpt>
      <trkpt lat="42.71219" lon="1.55061">
        <ele>1634</ele>
        <time>2014-08-15T09:58:25Z</time>
      </trkpt>
      <trkpt lat="42.7122" lon="1.55071">
        <ele>1632</ele>
        <time>2014-08-15T09:58:35Z</time>
      </trkpt>
      <trkpt lat="42.71221" lon="1.55074">
        <ele>1631</ele>
        <time>2014-08-15T09:58:39Z</time>
      </trkpt>
      <trkpt lat="42.71224" lon="1.55083">
        <ele>1627</ele>
        <time>2014-08-15T09:58:52Z</time>
      </trkpt>
      <trkpt lat="42.71224" lon="1.55084">
        <ele>1627</ele>
        <time>2014-08-15T09:58:54Z</time>
      </trkpt>
      <trkpt lat="42.71225" lon="1.55091">
        <ele>1626</ele>
        <time>2014-08-15T09:59:08Z</time>
      </trkpt>
      <trkpt lat="42.71223" lon="1.55094">
        <ele>1626</ele>
        <time>2014-08-15T09:59:11Z</time>
      </trkpt>
      <trkpt lat="42.71221" lon="1.55097">
        <ele>1625</ele>
        <time>2014-08-15T09:59:18Z</time>
      </trkpt>
      <trkpt lat="42.71222" lon="1.55102">
        <ele>1625</ele>
        <time>2014-08-15T09:59:23Z</time>
      </trkpt>
      <trkpt lat="42.71223" lon="1.55105">
        <ele>1626</ele>
        <time>2014-08-15T09:59:25Z</time>
      </trkpt>
      <trkpt lat="42.71222" lon="1.55109">
        <ele>1626</ele>
        <time>2014-08-15T09:59:28Z</time>
      </trkpt>
      <trkpt lat="42.71221" lon="1.55122">
        <ele>1628</ele>
        <time>2014-08-15T09:59:40Z</time>
      </trkpt>
      <trkpt lat="42.71222" lon="1.55133">
        <ele>1629</ele>
        <time>2014-08-15T09:59:51Z</time>
      </trkpt>
      <trkpt lat="42.71227" lon="1.55138">
        <ele>1630</ele>
        <time>2014-08-15T10:00:01Z</time>
      </trkpt>
      <trkpt lat="42.71231" lon="1.55145">
        <ele>1630</ele>
        <time>2014-08-15T10:00:12Z</time>
      </trkpt>
      <trkpt lat="42.71229" lon="1.55147">
        <ele>1629</ele>
        <time>2014-08-15T10:00:25Z</time>
      </trkpt>
      <trkpt lat="42.71228" lon="1.55151">
        <ele>1629</ele>
        <time>2014-08-15T10:00:41Z</time>
      </trkpt>
      <trkpt lat="42.71226" lon="1.5515">
        <ele>1629</ele>
        <time>2014-08-15T10:01:05Z</time>
      </trkpt>
      <trkpt lat="42.71227" lon="1.5515">
        <ele>1630</ele>
        <time>2014-08-15T10:01:17Z</time>
      </trkpt>
      <trkpt lat="42.71227" lon="1.55149">
        <ele>1629</ele>
        <time>2014-08-15T10:01:37Z</time>
      </trkpt>
      <trkpt lat="42.71226" lon="1.55143">
        <ele>1629</ele>
        <time>2014-08-15T10:02:11Z</time>
      </trkpt>
      <trkpt lat="42.71225" lon="1.55154">
        <ele>1630</ele>
        <time>2014-08-15T10:02:35Z</time>
      </trkpt>
      <trkpt lat="42.71251" lon="1.55166">
        <ele>1630</ele>
        <time>2014-08-15T10:03:07Z</time>
      </trkpt>
      <trkpt lat="42.71215" lon="1.55158">
        <ele>1630</ele>
        <time>2014-08-15T10:03:21Z</time>
      </trkpt>
      <trkpt lat="42.71222" lon="1.5516">
        <ele>1630</ele>
        <time>2014-08-15T10:03:47Z</time>
      </trkpt>
      <trkpt lat="42.71226" lon="1.55157">
        <ele>1630</ele>
        <time>2014-08-15T10:04:12Z</time>
      </trkpt>
      <trkpt lat="42.7123" lon="1.55155">
        <ele>1630</ele>
        <time>2014-08-15T10:04:39Z</time>
      </trkpt>
      <trkpt lat="42.71225" lon="1.55153">
        <ele>1629</ele>
        <time>2014-08-15T10:05:05Z</time>
      </trkpt>
      <trkpt lat="42.71227" lon="1.55151">
        <ele>1629</ele>
        <time>2014-08-15T10:05:35Z</time>
      </trkpt>
      <trkpt lat="42.71224" lon="1.55157">
        <ele>1629</ele>
        <time>2014-08-15T10:06:00Z</time>
      </trkpt>
      <trkpt lat="42.71226" lon="1.55147">
        <ele>1629</ele>
        <time>2014-08-15T10:06:27Z</time>
      </trkpt>
      <trkpt lat="42.71226" lon="1.55146">
        <ele>1628</ele>
        <time>2014-08-15T10:06:41Z</time>
      </trkpt>
      <trkpt lat="42.71228" lon="1.55146">
        <ele>1628</ele>
        <time>2014-08-15T10:07:09Z</time>
      </trkpt>
      <trkpt lat="42.71227" lon="1.55146">
        <ele>1628</ele>
        <time>2014-08-15T10:07:30Z</time>
      </trkpt>
      <trkpt lat="42.71227" lon="1.55143">
        <ele>1628</ele>
        <time>2014-08-15T10:07:51Z</time>
      </trkpt>
      <trkpt lat="42.71229" lon="1.55145">
        <ele>1629</ele>
        <time>2014-08-15T10:08:08Z</time>
      </trkpt>
      <trkpt lat="42.71227" lon="1.55146">
        <ele>1629</ele>
        <time>2014-08-15T10:08:28Z</time>
      </trkpt>
      <trkpt lat="42.71227" lon="1.55148">
        <ele>1629</ele>
        <time>2014-08-15T10:08:54Z</time>
      </trkpt>
      <trkpt lat="42.7123" lon="1.55141">
        <ele>1628</ele>
        <time>2014-08-15T10:09:18Z</time>
      </trkpt>
      <trkpt lat="42.71226" lon="1.5515">
        <ele>1628</ele>
        <time>2014-08-15T10:09:30Z</time>
      </trkpt>
      <trkpt lat="42.71226" lon="1.55148">
        <ele>1629</ele>
        <time>2014-08-15T10:09:53Z</time>
      </trkpt>
      <trkpt lat="42.71227" lon="1.55148">
        <ele>1628</ele>
        <time>2014-08-15T10:10:14Z</time>
      </trkpt>
      <trkpt lat="42.71226" lon="1.55151">
        <ele>1628</ele>
        <time>2014-08-15T10:10:28Z</time>
      </trkpt>
      <trkpt lat="42.71222" lon="1.55151">
        <ele>1628</ele>
        <time>2014-08-15T10:10:45Z</time>
      </trkpt>
      <trkpt lat="42.71227" lon="1.5515">
        <ele>1627</ele>
        <time>2014-08-15T10:11:11Z</time>
      </trkpt>
      <trkpt lat="42.71227" lon="1.55153">
        <ele>1628</ele>
        <time>2014-08-15T10:11:36Z</time>
      </trkpt>
      <trkpt lat="42.71225" lon="1.55155">
        <ele>1628</ele>
        <time>2014-08-15T10:11:53Z</time>
      </trkpt>
      <trkpt lat="42.71224" lon="1.5515">
        <ele>1627</ele>
        <time>2014-08-15T10:12:12Z</time>
      </trkpt>
      <trkpt lat="42.71228" lon="1.55147">
        <ele>1628</ele>
        <time>2014-08-15T10:12:25Z</time>
      </trkpt>
      <trkpt lat="42.71236" lon="1.55146">
        <ele>1630</ele>
        <time>2014-08-15T10:12:38Z</time>
      </trkpt>
      <trkpt lat="42.71238" lon="1.55141">
        <ele>1630</ele>
        <time>2014-08-15T10:12:49Z</time>
      </trkpt>
      <trkpt lat="42.71244" lon="1.55152">
        <ele>1628</ele>
        <time>2014-08-15T10:13:03Z</time>
      </trkpt>
      <trkpt lat="42.71244" lon="1.55153">
        <ele>1628</ele>
        <time>2014-08-15T10:13:06Z</time>
      </trkpt>
      <trkpt lat="42.71248" lon="1.55148">
        <ele>1627</ele>
        <time>2014-08-15T10:13:19Z</time>
      </trkpt>
      <trkpt lat="42.71249" lon="1.5514">
        <ele>1626</ele>
        <time>2014-08-15T10:13:42Z</time>
      </trkpt>
      <trkpt lat="42.71251" lon="1.55141">
        <ele>1626</ele>
        <time>2014-08-15T10:14:04Z</time>
      </trkpt>
      <trkpt lat="42.71249" lon="1.55153">
        <ele>1627</ele>
        <time>2014-08-15T10:14:15Z</time>
      </trkpt>
      <trkpt lat="42.71239" lon="1.55164">
        <ele>1626</ele>
        <time>2014-08-15T10:14:29Z</time>
      </trkpt>
      <trkpt lat="42.71234" lon="1.55167">
        <ele>1626</ele>
        <time>2014-08-15T10:14:35Z</time>
      </trkpt>
      <trkpt lat="42.71232" lon="1.55169">
        <ele>1626</ele>
        <time>2014-08-15T10:14:40Z</time>
      </trkpt>
      <trkpt lat="42.71225" lon="1.55166">
        <ele>1626</ele>
        <time>2014-08-15T10:14:54Z</time>
      </trkpt>
      <trkpt lat="42.7122" lon="1.55162">
        <ele>1627</ele>
        <time>2014-08-15T10:15:07Z</time>
      </trkpt>
      <trkpt lat="42.71215" lon="1.55154">
        <ele>1627</ele>
        <time>2014-08-15T10:15:18Z</time>
      </trkpt>
      <trkpt lat="42.71213" lon="1.55147">
        <ele>1628</ele>
        <time>2014-08-15T10:15:28Z</time>
      </trkpt>
      <trkpt lat="42.71209" lon="1.55142">
        <ele>1627</ele>
        <time>2014-08-15T10:15:41Z</time>
      </trkpt>
      <trkpt lat="42.71211" lon="1.55144">
        <ele>1628</ele>
        <time>2014-08-15T10:15:53Z</time>
      </trkpt>
      <trkpt lat="42.71212" lon="1.55146">
        <ele>1628</ele>
        <time>2014-08-15T10:15:54Z</time>
      </trkpt>
      <trkpt lat="42.71211" lon="1.55164">
        <ele>1627</ele>
        <time>2014-08-15T10:16:08Z</time>
      </trkpt>
      <trkpt lat="42.7121" lon="1.55167">
        <ele>1626</ele>
        <time>2014-08-15T10:16:13Z</time>
      </trkpt>
      <trkpt lat="42.71211" lon="1.55169">
        <ele>1625</ele>
        <time>2014-08-15T10:16:16Z</time>
      </trkpt>
      <trkpt lat="42.71211" lon="1.55174">
        <ele>1625</ele>
        <time>2014-08-15T10:16:20Z</time>
      </trkpt>
      <trkpt lat="42.71205" lon="1.55182">
        <ele>1623</ele>
        <time>2014-08-15T10:16:34Z</time>
      </trkpt>
      <trkpt lat="42.71201" lon="1.55188">
        <ele>1621</ele>
        <time>2014-08-15T10:16:46Z</time>
      </trkpt>
      <trkpt lat="42.71195" lon="1.5519">
        <ele>1621</ele>
        <time>2014-08-15T10:16:53Z</time>
      </trkpt>
      <trkpt lat="42.71189" lon="1.5519">
        <ele>1620</ele>
        <time>2014-08-15T10:16:59Z</time>
      </trkpt>
      <trkpt lat="42.71179" lon="1.552">
        <ele>1621</ele>
        <time>2014-08-15T10:17:13Z</time>
      </trkpt>
      <trkpt lat="42.71177" lon="1.55205">
        <ele>1621</ele>
        <time>2014-08-15T10:17:20Z</time>
      </trkpt>
      <trkpt lat="42.71176" lon="1.55208">
        <ele>1620</ele>
        <time>2014-08-15T10:17:24Z</time>
      </trkpt>
      <trkpt lat="42.71178" lon="1.5522">
        <ele>1619</ele>
        <time>2014-08-15T10:17:36Z</time>
      </trkpt>
      <trkpt lat="42.7118" lon="1.55232">
        <ele>1617</ele>
        <time>2014-08-15T10:17:47Z</time>
      </trkpt>
      <trkpt lat="42.71186" lon="1.55243">
        <ele>1616</ele>
        <time>2014-08-15T10:18:01Z</time>
      </trkpt>
      <trkpt lat="42.71183" lon="1.55255">
        <ele>1613</ele>
        <time>2014-08-15T10:18:14Z</time>
      </trkpt>
      <trkpt lat="42.7118" lon="1.5526">
        <ele>1612</ele>
        <time>2014-08-15T10:18:21Z</time>
      </trkpt>
      <trkpt lat="42.71176" lon="1.55268">
        <ele>1611</ele>
        <time>2014-08-15T10:18:32Z</time>
      </trkpt>
      <trkpt lat="42.71176" lon="1.55269">
        <ele>1611</ele>
        <time>2014-08-15T10:18:33Z</time>
      </trkpt>
      <trkpt lat="42.71173" lon="1.55277">
        <ele>1610</ele>
        <time>2014-08-15T10:18:46Z</time>
      </trkpt>
      <trkpt lat="42.71173" lon="1.55278">
        <ele>1610</ele>
        <time>2014-08-15T10:18:47Z</time>
      </trkpt>
      <trkpt lat="42.71172" lon="1.55281">
        <ele>1610</ele>
        <time>2014-08-15T10:18:50Z</time>
      </trkpt>
      <trkpt lat="42.71178" lon="1.55283">
        <ele>1608</ele>
        <time>2014-08-15T10:19:03Z</time>
      </trkpt>
      <trkpt lat="42.71183" lon="1.55292">
        <ele>1606</ele>
        <time>2014-08-15T10:19:18Z</time>
      </trkpt>
      <trkpt lat="42.71191" lon="1.55303">
        <ele>1605</ele>
        <time>2014-08-15T10:19:31Z</time>
      </trkpt>
      <trkpt lat="42.71195" lon="1.55307">
        <ele>1604</ele>
        <time>2014-08-15T10:19:38Z</time>
      </trkpt>
      <trkpt lat="42.71192" lon="1.55318">
        <ele>1604</ele>
        <time>2014-08-15T10:19:51Z</time>
      </trkpt>
      <trkpt lat="42.71191" lon="1.55323">
        <ele>1604</ele>
        <time>2014-08-15T10:19:55Z</time>
      </trkpt>
      <trkpt lat="42.7119" lon="1.55326">
        <ele>1603</ele>
        <time>2014-08-15T10:19:58Z</time>
      </trkpt>
      <trkpt lat="42.71188" lon="1.55343">
        <ele>1600</ele>
        <time>2014-08-15T10:20:12Z</time>
      </trkpt>
      <trkpt lat="42.71189" lon="1.55352">
        <ele>1598</ele>
        <time>2014-08-15T10:20:20Z</time>
      </trkpt>
      <trkpt lat="42.71191" lon="1.55359">
        <ele>1597</ele>
        <time>2014-08-15T10:20:31Z</time>
      </trkpt>
      <trkpt lat="42.71196" lon="1.55365">
        <ele>1595</ele>
        <time>2014-08-15T10:20:44Z</time>
      </trkpt>
      <trkpt lat="42.71199" lon="1.55372">
        <ele>1594</ele>
        <time>2014-08-15T10:20:54Z</time>
      </trkpt>
      <trkpt lat="42.71196" lon="1.55383">
        <ele>1591</ele>
        <time>2014-08-15T10:21:07Z</time>
      </trkpt>
      <trkpt lat="42.71191" lon="1.55392">
        <ele>1590</ele>
        <time>2014-08-15T10:21:16Z</time>
      </trkpt>
      <trkpt lat="42.71189" lon="1.55401">
        <ele>1589</ele>
        <time>2014-08-15T10:21:26Z</time>
      </trkpt>
      <trkpt lat="42.71184" lon="1.55415">
        <ele>1587</ele>
        <time>2014-08-15T10:21:39Z</time>
      </trkpt>
      <trkpt lat="42.71176" lon="1.55427">
        <ele>1586</ele>
        <time>2014-08-15T10:21:54Z</time>
      </trkpt>
      <trkpt lat="42.71171" lon="1.55434">
        <ele>1586</ele>
        <time>2014-08-15T10:22:05Z</time>
      </trkpt>
      <trkpt lat="42.71167" lon="1.55438">
        <ele>1585</ele>
        <time>2014-08-15T10:22:12Z</time>
      </trkpt>
      <trkpt lat="42.71162" lon="1.55444">
        <ele>1584</ele>
        <time>2014-08-15T10:22:21Z</time>
      </trkpt>
      <trkpt lat="42.71157" lon="1.55447">
        <ele>1584</ele>
        <time>2014-08-15T10:22:33Z</time>
      </trkpt>
      <trkpt lat="42.71149" lon="1.5546">
        <ele>1582</ele>
        <time>2014-08-15T10:22:47Z</time>
      </trkpt>
      <trkpt lat="42.71144" lon="1.55464">
        <ele>1581</ele>
        <time>2014-08-15T10:22:53Z</time>
      </trkpt>
      <trkpt lat="42.71139" lon="1.55474">
        <ele>1581</ele>
        <time>2014-08-15T10:23:04Z</time>
      </trkpt>
      <trkpt lat="42.71133" lon="1.55479">
        <ele>1580</ele>
        <time>2014-08-15T10:23:16Z</time>
      </trkpt>
      <trkpt lat="42.71125" lon="1.55488">
        <ele>1579</ele>
        <time>2014-08-15T10:23:29Z</time>
      </trkpt>
      <trkpt lat="42.71121" lon="1.55495">
        <ele>1578</ele>
        <time>2014-08-15T10:23:38Z</time>
      </trkpt>
      <trkpt lat="42.71119" lon="1.55502">
        <ele>1577</ele>
        <time>2014-08-15T10:23:44Z</time>
      </trkpt>
      <trkpt lat="42.71116" lon="1.55506">
        <ele>1576</ele>
        <time>2014-08-15T10:23:48Z</time>
      </trkpt>
      <trkpt lat="42.71108" lon="1.55523">
        <ele>1574</ele>
        <time>2014-08-15T10:24:04Z</time>
      </trkpt>
      <trkpt lat="42.71105" lon="1.55529">
        <ele>1574</ele>
        <time>2014-08-15T10:24:09Z</time>
      </trkpt>
      <trkpt lat="42.71099" lon="1.55536">
        <ele>1572</ele>
        <time>2014-08-15T10:24:21Z</time>
      </trkpt>
      <trkpt lat="42.71099" lon="1.55538">
        <ele>1572</ele>
        <time>2014-08-15T10:24:23Z</time>
      </trkpt>
      <trkpt lat="42.71098" lon="1.55545">
        <ele>1571</ele>
        <time>2014-08-15T10:24:29Z</time>
      </trkpt>
      <trkpt lat="42.71095" lon="1.55552">
        <ele>1570</ele>
        <time>2014-08-15T10:24:35Z</time>
      </trkpt>
      <trkpt lat="42.71092" lon="1.55565">
        <ele>1570</ele>
        <time>2014-08-15T10:24:47Z</time>
      </trkpt>
      <trkpt lat="42.7109" lon="1.55567">
        <ele>1570</ele>
        <time>2014-08-15T10:24:50Z</time>
      </trkpt>
      <trkpt lat="42.71085" lon="1.55583">
        <ele>1572</ele>
        <time>2014-08-15T10:25:04Z</time>
      </trkpt>
      <trkpt lat="42.71079" lon="1.55591">
        <ele>1573</ele>
        <time>2014-08-15T10:25:11Z</time>
      </trkpt>
      <trkpt lat="42.71078" lon="1.55592">
        <ele>1573</ele>
        <time>2014-08-15T10:25:12Z</time>
      </trkpt>
      <trkpt lat="42.71076" lon="1.55596">
        <ele>1573</ele>
        <time>2014-08-15T10:25:15Z</time>
      </trkpt>
      <trkpt lat="42.71072" lon="1.55604">
        <ele>1574</ele>
        <time>2014-08-15T10:25:26Z</time>
      </trkpt>
      <trkpt lat="42.71071" lon="1.55609">
        <ele>1573</ele>
        <time>2014-08-15T10:25:46Z</time>
      </trkpt>
      <trkpt lat="42.71071" lon="1.55606">
        <ele>1573</ele>
        <time>2014-08-15T10:26:00Z</time>
      </trkpt>
      <trkpt lat="42.71069" lon="1.55609">
        <ele>1573</ele>
        <time>2014-08-15T10:26:14Z</time>
      </trkpt>
      <trkpt lat="42.71071" lon="1.55607">
        <ele>1572</ele>
        <time>2014-08-15T10:26:31Z</time>
      </trkpt>
      <trkpt lat="42.7107" lon="1.55608">
        <ele>1573</ele>
        <time>2014-08-15T10:26:51Z</time>
      </trkpt>
      <trkpt lat="42.71077" lon="1.55611">
        <ele>1573</ele>
        <time>2014-08-15T10:27:12Z</time>
      </trkpt>
      <trkpt lat="42.7108" lon="1.55611">
        <ele>1573</ele>
        <time>2014-08-15T10:27:29Z</time>
      </trkpt>
      <trkpt lat="42.71076" lon="1.55618">
        <ele>1573</ele>
        <time>2014-08-15T10:27:49Z</time>
      </trkpt>
      <trkpt lat="42.71074" lon="1.55629">
        <ele>1574</ele>
        <time>2014-08-15T10:28:00Z</time>
      </trkpt>
      <trkpt lat="42.71068" lon="1.55637">
        <ele>1574</ele>
        <time>2014-08-15T10:28:10Z</time>
      </trkpt>
      <trkpt lat="42.71061" lon="1.55649">
        <ele>1575</ele>
        <time>2014-08-15T10:28:22Z</time>
      </trkpt>
      <trkpt lat="42.71058" lon="1.55657">
        <ele>1577</ele>
        <time>2014-08-15T10:28:31Z</time>
      </trkpt>
      <trkpt lat="42.71051" lon="1.55665">
        <ele>1577</ele>
        <time>2014-08-15T10:28:40Z</time>
      </trkpt>
      <trkpt lat="42.71044" lon="1.55675">
        <ele>1577</ele>
        <time>2014-08-15T10:28:52Z</time>
      </trkpt>
      <trkpt lat="42.71042" lon="1.55687">
        <ele>1578</ele>
        <time>2014-08-15T10:29:02Z</time>
      </trkpt>
      <trkpt lat="42.71034" lon="1.55701">
        <ele>1578</ele>
        <time>2014-08-15T10:29:13Z</time>
      </trkpt>
      <trkpt lat="42.7103" lon="1.55711">
        <ele>1579</ele>
        <time>2014-08-15T10:29:23Z</time>
      </trkpt>
      <trkpt lat="42.71026" lon="1.55718">
        <ele>1580</ele>
        <time>2014-08-15T10:29:30Z</time>
      </trkpt>
      <trkpt lat="42.71024" lon="1.55721">
        <ele>1580</ele>
        <time>2014-08-15T10:29:33Z</time>
      </trkpt>
      <trkpt lat="42.71023" lon="1.55727">
        <ele>1581</ele>
        <time>2014-08-15T10:29:38Z</time>
      </trkpt>
      <trkpt lat="42.71023" lon="1.55736">
        <ele>1582</ele>
        <time>2014-08-15T10:29:48Z</time>
      </trkpt>
      <trkpt lat="42.71017" lon="1.55749">
        <ele>1583</ele>
        <time>2014-08-15T10:30:01Z</time>
      </trkpt>
      <trkpt lat="42.71015" lon="1.5575">
        <ele>1583</ele>
        <time>2014-08-15T10:30:03Z</time>
      </trkpt>
      <trkpt lat="42.7101" lon="1.55754">
        <ele>1582</ele>
        <time>2014-08-15T10:30:11Z</time>
      </trkpt>
      <trkpt lat="42.71007" lon="1.55759">
        <ele>1581</ele>
        <time>2014-08-15T10:30:16Z</time>
      </trkpt>
      <trkpt lat="42.70997" lon="1.5577">
        <ele>1579</ele>
        <time>2014-08-15T10:30:30Z</time>
      </trkpt>
      <trkpt lat="42.70993" lon="1.55777">
        <ele>1578</ele>
        <time>2014-08-15T10:30:36Z</time>
      </trkpt>
      <trkpt lat="42.70989" lon="1.55782">
        <ele>1577</ele>
        <time>2014-08-15T10:30:41Z</time>
      </trkpt>
      <trkpt lat="42.70985" lon="1.55785">
        <ele>1575</ele>
        <time>2014-08-15T10:30:47Z</time>
      </trkpt>
      <trkpt lat="42.7098" lon="1.55787">
        <ele>1574</ele>
        <time>2014-08-15T10:30:54Z</time>
      </trkpt>
      <trkpt lat="42.70975" lon="1.55794">
        <ele>1573</ele>
        <time>2014-08-15T10:31:03Z</time>
      </trkpt>
      <trkpt lat="42.70972" lon="1.55798">
        <ele>1572</ele>
        <time>2014-08-15T10:31:09Z</time>
      </trkpt>
      <trkpt lat="42.70969" lon="1.55803">
        <ele>1570</ele>
        <time>2014-08-15T10:31:18Z</time>
      </trkpt>
      <trkpt lat="42.70957" lon="1.55811">
        <ele>1568</ele>
        <time>2014-08-15T10:31:34Z</time>
      </trkpt>
      <trkpt lat="42.70953" lon="1.55814">
        <ele>1567</ele>
        <time>2014-08-15T10:31:40Z</time>
      </trkpt>
      <trkpt lat="42.70947" lon="1.55821">
        <ele>1565</ele>
        <time>2014-08-15T10:31:50Z</time>
      </trkpt>
      <trkpt lat="42.70938" lon="1.5583">
        <ele>1563</ele>
        <time>2014-08-15T10:32:02Z</time>
      </trkpt>
      <trkpt lat="42.70935" lon="1.55843">
        <ele>1559</ele>
        <time>2014-08-15T10:32:15Z</time>
      </trkpt>
      <trkpt lat="42.70931" lon="1.5585">
        <ele>1556</ele>
        <time>2014-08-15T10:32:26Z</time>
      </trkpt>
      <trkpt lat="42.70926" lon="1.5586">
        <ele>1554</ele>
        <time>2014-08-15T10:32:40Z</time>
      </trkpt>
      <trkpt lat="42.70922" lon="1.55866">
        <ele>1551</ele>
        <time>2014-08-15T10:32:49Z</time>
      </trkpt>
      <trkpt lat="42.70917" lon="1.55876">
        <ele>1548</ele>
        <time>2014-08-15T10:33:01Z</time>
      </trkpt>
      <trkpt lat="42.70912" lon="1.55883">
        <ele>1546</ele>
        <time>2014-08-15T10:33:13Z</time>
      </trkpt>
      <trkpt lat="42.70908" lon="1.55887">
        <ele>1545</ele>
        <time>2014-08-15T10:33:19Z</time>
      </trkpt>
      <trkpt lat="42.70902" lon="1.55893">
        <ele>1544</ele>
        <time>2014-08-15T10:33:24Z</time>
      </trkpt>
      <trkpt lat="42.70901" lon="1.55897">
        <ele>1544</ele>
        <time>2014-08-15T10:33:26Z</time>
      </trkpt>
      <trkpt lat="42.70899" lon="1.55898">
        <ele>1555</ele>
      </trkpt>
      <trkpt lat="42.70877" lon="1.5591">
        <ele>1562</ele>
      </trkpt>
      <trkpt lat="42.70864" lon="1.55975">
        <ele>1532</ele>
      </trkpt>
      <trkpt lat="42.70837" lon="1.56005">
        <ele>1525</ele>
      </trkpt>
      <trkpt lat="42.70857" lon="1.56011">
        <ele>1516</ele>
      </trkpt>
      <trkpt lat="42.70855" lon="1.56033">
        <ele>1513</ele>
      </trkpt>
      <trkpt lat="42.7088" lon="1.56099">
        <ele>1507</ele>
      </trkpt>
      <trkpt lat="42.7091" lon="1.56114">
        <ele>1507</ele>
      </trkpt>
      <trkpt lat="42.70965" lon="1.55995">
        <ele>1502</ele>
      </trkpt>
      <trkpt lat="42.70994" lon="1.55961">
        <ele>1501</ele>
      </trkpt>
      <trkpt lat="42.71025" lon="1.55957">
        <ele>1497</ele>
      </trkpt>
      <trkpt lat="42.71032" lon="1.55927">
        <ele>1496</ele>
      </trkpt>
      <trkpt lat="42.7107" lon="1.55902">
        <ele>1497</ele>
      </trkpt>
      <trkpt lat="42.71099" lon="1.55871">
        <ele>1495</ele>
      </trkpt>
      <trkpt lat="42.71128" lon="1.55837">
        <ele>1491</ele>
      </trkpt>
      <trkpt lat="42.71186" lon="1.55812">
        <ele>1478</ele>
      </trkpt>
      <trkpt lat="42.71307" lon="1.55728">
        <ele>1474</ele>
      </trkpt>
      <trkpt lat="42.71367" lon="1.55712">
        <ele>1469</ele>
      </trkpt>
      <trkpt lat="42.71407" lon="1.55687">
        <ele>1459</ele>
      </trkpt>
      <trkpt lat="42.71456" lon="1.5561">
        <ele>1434</ele>
      </trkpt>
      <trkpt lat="42.71517" lon="1.5561">
        <ele>1422</ele>
      </trkpt>
      <trkpt lat="42.7153" lon="1.55615">
        <ele>1423</ele>
      </trkpt>
      <trkpt lat="42.71539" lon="1.55588">
        <ele>1419</ele>
      </trkpt>
      <trkpt lat="42.71595" lon="1.55557">
        <ele>1389</ele>
      </trkpt>
      <trkpt lat="42.7161" lon="1.55514">
        <ele>1383</ele>
      </trkpt>
      <trkpt lat="42.7162" lon="1.55547">
        <ele>1384</ele>
      </trkpt>
      <trkpt lat="42.71624" lon="1.55498">
        <ele>1372</ele>
      </trkpt>
      <trkpt lat="42.71632" lon="1.55459">
        <ele>1371</ele>
      </trkpt>
      <trkpt lat="42.71637" lon="1.5551">
        <ele>1371</ele>
      </trkpt>
      <trkpt lat="42.71642" lon="1.55526">
        <ele>1373</ele>
      </trkpt>
      <trkpt lat="42.7165" lon="1.55465">
        <ele>1363</ele>
      </trkpt>
      <trkpt lat="42.71666" lon="1.55416">
        <ele>1342</ele>
      </trkpt>
      <trkpt lat="42.71704" lon="1.55382">
        <ele>1340</ele>
      </trkpt>
      <trkpt lat="42.71715" lon="1.55412">
        <ele>1330</ele>
      </trkpt>
      <trkpt lat="42.71745" lon="1.55445">
        <ele>1314</ele>
      </trkpt>
      <trkpt lat="42.71797" lon="1.55493">
        <ele>1290</ele>
      </trkpt>
      <trkpt lat="42.71797" lon="1.55505">
        <ele>1306</ele>
      </trkpt>
      <trkpt lat="42.71868" lon="1.55498">
        <ele>1267</ele>
      </trkpt>
      <trkpt lat="42.71898" lon="1.55476">
        <ele>1263</ele>
      </trkpt>
      <trkpt lat="42.7196" lon="1.55473">
        <ele>1244</ele>
      </trkpt>
      <trkpt lat="42.72075" lon="1.55431">
        <ele>1209</ele>
      </trkpt>
      <trkpt lat="42.72095" lon="1.55419">
        <ele>1204</ele>
      </trkpt>
      <trkpt lat="42.72124" lon="1.55413">
        <ele>1197</ele>
      </trkpt>
      <trkpt lat="42.72169" lon="1.55388">
        <ele>1200</ele>
      </trkpt>
      <trkpt lat="42.72186" lon="1.55329">
        <ele>1182</ele>
      </trkpt>
      <trkpt lat="42.72251" lon="1.5524">
        <ele>1142</ele>
      </trkpt>
      <trkpt lat="42.72309" lon="1.55212">
        <ele>1144</ele>
      </trkpt>
      <trkpt lat="42.72362" lon="1.55132">
        <ele>1125</ele>
      </trkpt>
      <trkpt lat="42.72382" lon="1.55074">
        <ele>1105</ele>
      </trkpt>
      <trkpt lat="42.72359" lon="1.55074">
        <ele>1103</ele>
      </trkpt>
      <trkpt lat="42.72382" lon="1.55059">
        <ele>1103</ele>
      </trkpt>
      <trkpt lat="42.7241" lon="1.55001">
        <ele>1083</ele>
      </trkpt>
      <trkpt lat="42.72457" lon="1.54954">
        <ele>1060</ele>
      </trkpt>
      <trkpt lat="42.7268" lon="1.54951">
        <ele>1014</ele>
      </trkpt>
      <trkpt lat="42.72722" lon="1.54941">
        <ele>1009</ele>
      </trkpt>
      <trkpt lat="42.72805" lon="1.54946">
        <ele>999</ele>
      </trkpt>
      <trkpt lat="42.72904" lon="1.54899">
        <ele>970</ele>
      </trkpt>
      <trkpt lat="42.72937" lon="1.54914">
        <ele>961</ele>
      </trkpt>
      <trkpt lat="42.7294" lon="1.54923">
        <ele>967</ele>
      </trkpt>
      <trkpt lat="42.73042" lon="1.55029">
        <ele>953</ele>
      </trkpt>
    </trkseg>
  </trk>
</gpx>